Latest Flight | Flight Log | Data Trends | Login | Join FlightData.com!
Date Range From To
Export: Google Earth
Flight Log - 308CD - Click on row to view flight. Click on header to sort.
Date Origin Dest Depart Arrive* Hobbs Flight Time Flight Distance Fuel Fuel/hr Fuel/nm Altitude Gnd Speed
Wed, Dec 31, 1969     19:00 19:00 0 hrs 0.00 hrs 0.00 nm 0.00 gal 0.00 gal/hr 0.00 gal/nm 0 msl 0 kts
Wed, Dec 31, 1969     19:00 19:00 0 hrs 0.00 hrs 0.00 nm 0.00 gal 0.00 gal/hr 0.00 gal/nm 0 msl 0 kts
Wed, Dec 31, 1969     19:00 19:00 0 hrs 0.00 hrs 0.00 nm 0.00 gal 0.00 gal/hr 0.00 gal/nm 0 msl 0 kts
Wed, Dec 31, 1969     19:00 19:00 0 hrs 0.00 hrs 0.00 nm 0.00 gal 0.00 gal/hr 0.00 gal/nm 0 msl 0 kts
Wed, Dec 31, 1969     19:00 19:00 0 hrs 0.00 hrs 0.00 nm 0.00 gal 0.00 gal/hr 0.00 gal/nm 0 msl 0 kts
Wed, Dec 31, 1969     19:00 19:00 0 hrs 0.00 hrs 0.00 nm 0.00 gal 0.00 gal/hr 0.00 gal/nm 0 msl 0 kts
Wed, Dec 31, 1969     19:00 19:00 0 hrs 0.00 hrs 0.00 nm 0.00 gal 0.00 gal/hr 0.00 gal/nm 0 msl 0 kts
Wed, Dec 31, 1969     19:00 19:00 0 hrs 0.00 hrs 0.00 nm 0.00 gal 0.00 gal/hr 0.00 gal/nm 0 msl 0 kts
Wed, Dec 31, 1969     19:00 19:00 0 hrs 0.00 hrs 0.00 nm 0.00 gal 0.00 gal/hr 0.00 gal/nm 0 msl 0 kts
Wed, Dec 31, 1969     19:00 19:00 0 hrs 0.00 hrs 0.00 nm 0.00 gal 0.00 gal/hr 0.00 gal/nm 0 msl 0 kts
Wed, Dec 31, 1969     19:00 19:00 0 hrs 0.00 hrs 0.00 nm 0.00 gal 0.00 gal/hr 0.00 gal/nm 0 msl 0 kts
Wed, Dec 31, 1969     19:00 19:00 0 hrs 0.00 hrs 0.00 nm 0.00 gal 0.00 gal/hr 0.00 gal/nm 0 msl 0 kts
Wed, Dec 31, 1969     19:00 19:00 0 hrs 0.00 hrs 0.00 nm 0.00 gal 0.00 gal/hr 0.00 gal/nm 0 msl 0 kts
Wed, Dec 31, 1969     19:00 19:00 0 hrs 0.00 hrs 0.00 nm 0.00 gal 0.00 gal/hr 0.00 gal/nm 0 msl 0 kts
Wed, Dec 31, 1969     19:00 19:00 0 hrs 0.00 hrs 0.00 nm 0.00 gal 0.00 gal/hr 0.00 gal/nm 0 msl 0 kts
Wed, Dec 31, 1969     19:00 19:00 0 hrs 0.00 hrs 0.00 nm 0.00 gal 0.00 gal/hr 0.00 gal/nm 0 msl 0 kts
Wed, Dec 31, 1969     19:00 19:00 0 hrs 0.00 hrs 0.00 nm 0.00 gal 0.00 gal/hr 0.00 gal/nm 0 msl 0 kts
Wed, Dec 31, 1969     19:00 19:00 0 hrs 0.00 hrs 0.00 nm 0.00 gal 0.00 gal/hr 0.00 gal/nm 0 msl 0 kts
Wed, Dec 31, 1969     19:00 19:00 0 hrs 0.00 hrs 0.00 nm 0.00 gal 0.00 gal/hr 0.00 gal/nm 0 msl 0 kts
Wed, Dec 31, 1969     19:00 19:00 0 hrs 0.00 hrs 0.00 nm 0.00 gal 0.00 gal/hr 0.00 gal/nm 0 msl 0 kts
Wed, Dec 31, 1969     19:00 19:00 0 hrs 0.00 hrs 0.00 nm 0.00 gal 0.00 gal/hr 0.00 gal/nm 0 msl 0 kts
Wed, Dec 31, 1969     19:00 19:00 0 hrs 0.00 hrs 0.00 nm 0.00 gal 0.00 gal/hr 0.00 gal/nm 0 msl 0 kts
Wed, Dec 31, 1969     19:00 19:00 0 hrs 0.00 hrs 0.00 nm 0.00 gal 0.00 gal/hr 0.00 gal/nm 0 msl 0 kts
Wed, Dec 31, 1969     19:00 19:00 0 hrs 0.00 hrs 0.00 nm 0.00 gal 0.00 gal/hr 0.00 gal/nm 0 msl 0 kts
Wed, Dec 31, 1969     19:00 19:00 0 hrs 0.00 hrs 0.00 nm 0.00 gal 0.00 gal/hr 0.00 gal/nm 0 msl 0 kts
Wed, Dec 31, 1969     19:00 19:00 0 hrs 0.00 hrs 0.00 nm 0.00 gal 0.00 gal/hr 0.00 gal/nm 0 msl 0 kts
Wed, Dec 31, 1969     19:00 19:00 0 hrs 0.00 hrs 0.00 nm 0.00 gal 0.00 gal/hr 0.00 gal/nm 0 msl 0 kts
Wed, Dec 31, 1969     19:00 19:00 0 hrs 0.00 hrs 0.00 nm 0.00 gal 0.00 gal/hr 0.00 gal/nm 0 msl 0 kts
Wed, Dec 31, 1969     19:00 19:00 0 hrs 0.00 hrs 0.00 nm 0.00 gal 0.00 gal/hr 0.00 gal/nm 0 msl 0 kts
Wed, Dec 31, 1969     19:00 19:00 0 hrs 0.00 hrs 0.00 nm 0.00 gal 0.00 gal/hr 0.00 gal/nm 0 msl 0 kts
Wed, Dec 31, 1969     19:00 19:00 0 hrs 0.00 hrs 0.00 nm 0.00 gal 0.00 gal/hr 0.00 gal/nm 0 msl 0 kts
Wed, Dec 31, 1969     19:00 19:00 0 hrs 0.00 hrs 0.00 nm 0.00 gal 0.00 gal/hr 0.00 gal/nm 0 msl 0 kts
Wed, Dec 31, 1969     19:00 19:00 0 hrs 0.00 hrs 0.00 nm 0.00 gal 0.00 gal/hr 0.00 gal/nm 0 msl 0 kts
Wed, Dec 31, 1969     19:00 19:00 0 hrs 0.00 hrs 0.00 nm 0.00 gal 0.00 gal/hr 0.00 gal/nm 0 msl 0 kts
Wed, Dec 31, 1969     19:00 19:00 0 hrs 0.00 hrs 0.00 nm 0.00 gal 0.00 gal/hr 0.00 gal/nm 0 msl 0 kts
Wed, Dec 31, 1969     19:00 19:00 0 hrs 0.00 hrs 0.00 nm 0.00 gal 0.00 gal/hr 0.00 gal/nm 0 msl 0 kts
Sat, Jan 1, 2000     00:00 00:04 0.07 hrs 0.00 hrs 0.00 nm 0.00 gal 0.00 gal/hr 0.00 gal/nm 0 msl 0 kts
Sat, Jan 1, 2000     00:10 00:11 0.02 hrs 0.00 hrs 0.00 nm 0.00 gal 0.00 gal/hr 0.00 gal/nm 0 msl 0 kts
Sat, Jan 1, 2000     00:01 00:25 0.4 hrs 0.00 hrs 0.00 nm 0.00 gal 0.00 gal/hr 0.00 gal/nm 0 msl 0 kts
Sun, Jan 16, 2000     15:00 15:01 0.02 hrs 0.00 hrs 0.00 nm 0.10 gal 6.00 gal/hr 0.00 gal/nm 0 msl 0 kts
Mon, Jan 17, 2000 KSNA KCRQ 03:46 19:33 1.22 hrs 0.58 hrs 75.41 nm 10.00 gal 8.22 gal/hr 0.13 gal/nm 0 msl 128 kts
Thu, Mar 16, 2000 KSNA KSNA 09:29 10:04 0.58 hrs 0.39 hrs 55.53 nm 6.30 gal 10.80 gal/hr 0.11 gal/nm 0 msl 140 kts
Fri, Mar 17, 2000     03:58 04:00 0.03 hrs 0.00 hrs 0.00 nm 0.00 gal 0.00 gal/hr 0.00 gal/nm 0 msl 0 kts
Tue, Mar 11, 2008 KMMH KRAL 22:28 00:12 1.7 hrs 1.56 hrs 253.82 nm 20.80 gal 12.24 gal/hr 0.08 gal/nm 0 msl 161 kts
Wed, Mar 12, 2008 KRAL KSNA 00:21 00:39 0.3 hrs 0.20 hrs 28.66 nm 3.30 gal 11.00 gal/hr 0.12 gal/nm 0 msl 142 kts
Wed, Mar 12, 2008 KSNA KTRM 21:04 22:00 0.92 hrs 0.68 hrs 104.73 nm 12.40 gal 13.50 gal/hr 0.12 gal/nm 0 msl 153 kts
Wed, Mar 12, 2008 KTRM KSNA 23:38 00:31 0.87 hrs 0.70 hrs 100.80 nm 13.20 gal 15.23 gal/hr 0.13 gal/nm 0 msl 144 kts
Fri, Mar 21, 2008 KSNA KRAL 21:20 21:47 0.45 hrs 0.28 hrs 39.50 nm 4.30 gal 9.63 gal/hr 0.11 gal/nm 0 msl 139 kts
Sat, Mar 22, 2008 KRAL KSNA 00:49 01:09 0.33 hrs 0.22 hrs 29.55 nm 3.20 gal 9.60 gal/hr 0.11 gal/nm 0 msl 133 kts
Sat, Mar 22, 2008 KSNA KRAL 16:33 16:58 0.41 hrs 0.30 hrs 37.97 nm 4.50 gal 11.02 gal/hr 0.12 gal/nm 0 msl 127 kts
Sat, Mar 22, 2008 KRAL KMMH 17:23 19:09 1.75 hrs 1.57 hrs 249.19 nm 23.70 gal 13.54 gal/hr 0.10 gal/nm 0 msl 157 kts
Sat, Mar 22, 2008 KMMH KRAL 21:07 22:53 1.73 hrs 1.64 hrs 265.68 nm 22.60 gal 13.04 gal/hr 0.09 gal/nm 0 msl 161 kts
Sun, Mar 23, 2008 KRAL KSNA 01:10 01:28 0.3 hrs 0.22 hrs 29.74 nm 2.80 gal 9.33 gal/hr 0.09 gal/nm 0 msl 135 kts
Sun, Apr 13, 2008 KSNA KCRQ 21:02 21:33 0.5 hrs 0.30 hrs 46.75 nm 6.70 gal 13.40 gal/hr 0.14 gal/nm 0 msl 157 kts
Sun, Apr 13, 2008 KCRQ KCRQ 22:55 00:24 1.45 hrs 1.09 hrs 136.66 nm 18.60 gal 12.83 gal/hr 0.14 gal/nm 0 msl 124 kts
Mon, Apr 14, 2008 KCRQ KSNA 00:52 01:21 0.47 hrs 0.32 hrs 49.72 nm 6.70 gal 14.36 gal/hr 0.13 gal/nm 0 msl 152 kts
Thu, Apr 17, 2008 KSNA KRAL 20:05 20:37 0.52 hrs 0.27 hrs 34.08 nm 3.80 gal 7.38 gal/hr 0.11 gal/nm 0 msl 126 kts
Thu, Apr 17, 2008 KRAL KSNA 23:08 23:34 0.43 hrs 0.33 hrs 44.81 nm 4.50 gal 10.38 gal/hr 0.10 gal/nm 0 msl 134 kts
Fri, Apr 18, 2008 KSNA KSNA 01:21 01:21 0 hrs 0.00 hrs 0.00 nm 6.70 gal 4020.00 gal/hr 0.00 gal/nm 0 msl 0 kts
Sat, Apr 26, 2008 KSNA KSNA 00:23 01:05 0.68 hrs 0.45 hrs 63.45 nm 8.20 gal 12.00 gal/hr 0.13 gal/nm 0 msl 138 kts
Sun, Apr 27, 2008 KSNA KTOA 17:41 18:17 0.58 hrs 0.19 hrs 27.54 nm 4.70 gal 8.06 gal/hr 0.17 gal/nm 0 msl 142 kts
Sun, Apr 27, 2008 KTOA KSNA 18:49 19:21 0.52 hrs 0.31 hrs 41.97 nm 6.80 gal 13.16 gal/hr 0.16 gal/nm 0 msl 136 kts
Thu, May 1, 2008 KSNA KRNO 18:44 21:54 3.11 hrs 2.69 hrs 411.08 nm 50.40 gal 16.20 gal/hr 0.12 gal/nm 0 msl 151 kts
Fri, May 2, 2008 KRNO KSNA 01:27 03:57 2.45 hrs 2.18 hrs 392.11 nm 35.30 gal 14.41 gal/hr 0.09 gal/nm 0 msl 178 kts
Fri, May 2, 2008 KSNA KLGB 16:17 16:47 0.51 hrs 0.21 hrs 27.86 nm 4.70 gal 9.31 gal/hr 0.17 gal/nm 0 msl 134 kts
Fri, May 2, 2008 KLGB KSNA 16:54 17:37 0.72 hrs 0.30 hrs 37.08 nm 6.30 gal 8.79 gal/hr 0.17 gal/nm 0 msl 123 kts
Sat, May 3, 2008 KSNA KAVX 00:29 01:02 0.55 hrs 0.32 hrs 44.71 nm 6.80 gal 12.36 gal/hr 0.15 gal/nm 0 msl 138 kts
Sun, May 4, 2008 KAVX KSNA 20:39 21:09 0.48 hrs 0.29 hrs 43.06 nm 5.90 gal 12.25 gal/hr 0.14 gal/nm 0 msl 146 kts
Sun, May 4, 2008 KSNA KSNA 22:36 22:39 0.07 hrs 0.00 hrs 0.00 nm 0.20 gal 3.00 gal/hr 0.00 gal/nm 0 msl 0 kts
Sun, May 4, 2008 KSNA KSNA 23:00 23:19 0.32 hrs 0.00 hrs 0.00 nm 1.10 gal 3.47 gal/hr 0.00 gal/nm 0 msl 0 kts
Mon, May 5, 2008 KSNA KSNA 23:19 23:19 0 hrs 0.00 hrs 0.00 nm 1.10 gal 660.00 gal/hr 0.00 gal/nm 0 msl 0 kts
Mon, May 5, 2008 KSNA KSNA 23:19 23:19 0 hrs 0.00 hrs 0.00 nm 1.10 gal 660.00 gal/hr 0.00 gal/nm 0 msl 0 kts
Tue, May 6, 2008 KSNA KSNA 22:05 22:07 0.04 hrs 0.00 hrs 0.00 nm 0.20 gal 4.62 gal/hr 0.00 gal/nm 0 msl 0 kts
Thu, May 8, 2008 KSNA KSNA 20:31 20:54 0.4 hrs 0.00 hrs 0.00 nm 2.70 gal 6.84 gal/hr 0.00 gal/nm 0 msl 0 kts
Fri, May 9, 2008     23:15 23:18 0.05 hrs 0.00 hrs 0.00 nm 0.50 gal 10.00 gal/hr 0.00 gal/nm 0 msl 0 kts
Mon, May 12, 2008     17:39 17:40 0.02 hrs 0.00 hrs 0.00 nm 0.10 gal 5.45 gal/hr 0.00 gal/nm 0 msl 0 kts
Mon, May 12, 2008 KSNA KSNA 17:41 17:45 0.07 hrs 0.00 hrs 0.00 nm 0.30 gal 4.50 gal/hr 0.00 gal/nm 0 msl 0 kts
Mon, May 12, 2008     23:40 23:41 0.02 hrs 0.00 hrs 0.00 nm 0.10 gal 5.45 gal/hr 0.00 gal/nm 0 msl 0 kts
Mon, May 12, 2008     23:43 23:49 0.1 hrs 0.00 hrs 0.00 nm 0.80 gal 8.00 gal/hr 0.00 gal/nm 0 msl 0 kts
Tue, May 13, 2008 KSNA KSNA 16:42 16:46 0.08 hrs 0.00 hrs 0.00 nm 0.40 gal 5.11 gal/hr 0.00 gal/nm 0 msl 0 kts
Tue, May 13, 2008 KSNA KSNA 22:10 22:11 0.03 hrs 0.00 hrs 0.00 nm 0.10 gal 3.75 gal/hr 0.00 gal/nm 0 msl 0 kts
Fri, May 16, 2008 KSNA KMMH 14:25 16:53 2.43 hrs 2.05 hrs 293.62 nm 28.70 gal 11.81 gal/hr 0.10 gal/nm 0 msl 142 kts
Fri, May 16, 2008 KMMH KRAL 21:54 23:33 1.62 hrs 1.54 hrs 256.27 nm 19.50 gal 12.06 gal/hr 0.08 gal/nm 0 msl 165 kts
Fri, May 16, 2008 KRAL KSNA 23:56 00:15 0.32 hrs 0.23 hrs 33.07 nm 3.10 gal 9.79 gal/hr 0.09 gal/nm 0 msl 141 kts
Sun, May 18, 2008 KSNA KSNA 17:15 18:35 1.32 hrs 0.80 hrs 118.34 nm 15.80 gal 12.00 gal/hr 0.13 gal/nm 0 msl 146 kts
Thu, May 29, 2008 KSNA KSNA 15:47 15:49 0.04 hrs 0.00 hrs 0.00 nm 0.20 gal 5.71 gal/hr 0.00 gal/nm 0 msl 0 kts
Thu, May 29, 2008     23:07 23:11 0.07 hrs 0.00 hrs 0.00 nm 0.20 gal 3.00 gal/hr 0.00 gal/nm 0 msl 0 kts
Wed, Jun 11, 2008 KSNA KSNA 20:03 20:49 0.75 hrs 0.36 hrs 54.30 nm 8.80 gal 11.73 gal/hr 0.16 gal/nm 0 msl 148 kts
Wed, Jun 11, 2008 KSNA KSNA 23:07 23:10 0.05 hrs 0.00 hrs 0.00 nm 0.20 gal 4.00 gal/hr 0.00 gal/nm 0 msl 0 kts
Wed, Jun 11, 2008     23:11 23:11 0 hrs 0.00 hrs 0.00 nm 0.20 gal 120.00 gal/hr 0.00 gal/nm 0 msl 0 kts
Thu, Jun 12, 2008 KSNA KSNA 20:49 20:49 0 hrs 0.00 hrs 0.00 nm 8.80 gal 5280.00 gal/hr 0.00 gal/nm 0 msl 0 kts
Sat, Jun 14, 2008 KSNA KMYF 17:57 18:50 0.87 hrs 0.54 hrs 85.62 nm 11.10 gal 12.83 gal/hr 0.13 gal/nm 0 msl 157 kts
Sat, Jun 14, 2008 KMYF KMYF 19:49 19:52 0.05 hrs 0.00 hrs 0.00 nm 0.00 gal 0.00 gal/hr 0.00 gal/nm 0 msl 0 kts
Sat, Jun 14, 2008 KMYF KSNA 19:54 22:23 2.43 hrs 1.90 hrs 278.70 nm 32.70 gal 13.44 gal/hr 0.12 gal/nm 0 msl 145 kts
Mon, Jun 16, 2008 KSNA KSAN 16:37 17:25 0.78 hrs 0.55 hrs 85.32 nm 9.40 gal 12.05 gal/hr 0.11 gal/nm 0 msl 154 kts
Mon, Jun 16, 2008 KSAN KSNA 20:56 21:43 0.77 hrs 0.44 hrs 69.69 nm 8.90 gal 11.61 gal/hr 0.13 gal/nm 0 msl 156 kts
Thu, Jun 26, 2008 KSNA KSNA 21:43 21:43 0 hrs 0.00 hrs 0.00 nm 8.90 gal 5340.00 gal/hr 0.00 gal/nm 0 msl 0 kts
Thu, Jul 3, 2008 KSNA F70 23:25 23:57 0.52 hrs 0.30 hrs 43.02 nm 5.90 gal 11.42 gal/hr 0.14 gal/nm 0 msl 144 kts
Fri, Jul 4, 2008 F70 KSNA 00:29 00:58 0.48 hrs 0.31 hrs 41.80 nm 6.00 gal 12.41 gal/hr 0.14 gal/nm 0 msl 134 kts
Sat, Jul 5, 2008 KSNA KSNA 03:30 04:21 0.85 hrs 0.54 hrs 78.94 nm 9.80 gal 11.53 gal/hr 0.12 gal/nm 0 msl 146 kts
Wed, Jul 9, 2008 KSNA F70 01:58 02:28 0.5 hrs 0.30 hrs 43.69 nm 6.00 gal 12.00 gal/hr 0.14 gal/nm 0 msl 143 kts
Wed, Jul 9, 2008 F70 KSNA 03:05 03:33 0.47 hrs 0.34 hrs 45.69 nm 6.00 gal 12.86 gal/hr 0.13 gal/nm 0 msl 133 kts
Fri, Jul 11, 2008 KSNA KSNA 20:00 21:04 1.05 hrs 0.64 hrs 86.71 nm 9.60 gal 9.14 gal/hr 0.11 gal/nm 0 msl 135 kts
Tue, Jul 15, 2008 KSNA KSBA 02:11 03:21 1.17 hrs 0.78 hrs 118.09 nm 13.80 gal 11.83 gal/hr 0.12 gal/nm 0 msl 150 kts
Wed, Jul 16, 2008 KSBA KSNA 00:57 02:04 1.1 hrs 0.80 hrs 126.50 nm 14.00 gal 12.73 gal/hr 0.11 gal/nm 0 msl 158 kts
Fri, Jul 18, 2008 KSNA L35 20:43 21:32 0.82 hrs 0.50 hrs 72.77 nm 9.90 gal 12.12 gal/hr 0.14 gal/nm 0 msl 143 kts
Mon, Jul 21, 2008 L35 KSNA 00:37 01:21 0.73 hrs 0.54 hrs 77.01 nm 8.00 gal 11.03 gal/hr 0.10 gal/nm 0 msl 141 kts
Fri, Jul 25, 2008 KSNA KVNY 21:31 22:17 0.75 hrs 0.40 hrs 56.62 nm 8.60 gal 11.47 gal/hr 0.15 gal/nm 0 msl 140 kts
Sat, Jul 26, 2008 KVNY KSNA 00:34 01:12 0.62 hrs 0.40 hrs 56.66 nm 7.90 gal 12.81 gal/hr 0.14 gal/nm 0 msl 142 kts
Mon, Aug 4, 2008 KSNA KSNA 22:27 22:45 0.28 hrs 0.00 hrs 0.00 nm 1.80 gal 6.35 gal/hr 0.00 gal/nm 0 msl 0 kts
Fri, Aug 15, 2008     15:16 15:16 0 hrs 0.00 hrs 0.00 nm 0.40 gal 240.00 gal/hr 0.00 gal/nm 0 msl 0 kts
Fri, Aug 15, 2008     15:10 15:16 0.09 hrs 0.00 hrs 0.00 nm 0.40 gal 4.36 gal/hr 0.00 gal/nm 0 msl 0 kts
Fri, Aug 15, 2008 KSNA KSNA 21:14 21:23 0.15 hrs 0.00 hrs 0.00 nm 0.40 gal 2.67 gal/hr 0.00 gal/nm 0 msl 0 kts
Sat, Aug 16, 2008 KSNA KAVX 20:21 20:59 0.62 hrs 0.30 hrs 41.59 nm 6.10 gal 9.89 gal/hr 0.15 gal/nm 0 msl 136 kts
Sat, Aug 16, 2008 KAVX KSNA 22:08 22:43 0.57 hrs 0.38 hrs 56.02 nm 7.10 gal 12.53 gal/hr 0.13 gal/nm 0 msl 148 kts
Sun, Aug 24, 2008 KSNA KAVX 17:45 18:19 0.56 hrs 0.32 hrs 45.11 nm 6.50 gal 11.61 gal/hr 0.14 gal/nm 0 msl 140 kts
Sun, Aug 24, 2008 KAVX KSNA 19:27 19:59 0.52 hrs 0.34 hrs 49.78 nm 6.60 gal 12.77 gal/hr 0.13 gal/nm 0 msl 146 kts
Tue, Aug 26, 2008 KSNA KRAL 21:52 22:24 0.53 hrs 0.25 hrs 36.23 nm 4.30 gal 8.06 gal/hr 0.12 gal/nm 0 msl 142 kts
Tue, Aug 26, 2008 KRAL KSNA 22:52 23:21 0.48 hrs 0.35 hrs 45.98 nm 5.00 gal 10.34 gal/hr 0.11 gal/nm 0 msl 131 kts
Sat, Aug 30, 2008 KSNA KSBP 20:41 22:13 1.5 hrs 1.12 hrs 174.91 nm 19.70 gal 13.13 gal/hr 0.11 gal/nm 0 msl 155 kts
Sun, Aug 31, 2008 KSBP KPRB 20:45 21:11 0.43 hrs 0.22 hrs 30.11 nm 4.80 gal 11.16 gal/hr 0.16 gal/nm 0 msl 137 kts
Sun, Aug 31, 2008 KPRB KSBP 22:41 23:15 0.57 hrs 0.36 hrs 51.98 nm 7.00 gal 12.35 gal/hr 0.13 gal/nm 0 msl 143 kts
Mon, Sep 1, 2008 KSBP KSNA 18:55 20:21 1.41 hrs 1.17 hrs 179.73 nm 20.40 gal 14.50 gal/hr 0.11 gal/nm 0 msl 152 kts
Tue, Sep 2, 2008 KSNA KAVX 23:13 23:48 0.57 hrs 0.29 hrs 38.69 nm 6.00 gal 10.59 gal/hr 0.16 gal/nm 0 msl 134 kts
Wed, Sep 3, 2008 KAVX KSNA 00:33 01:00 0.45 hrs 0.30 hrs 42.46 nm 5.30 gal 11.78 gal/hr 0.12 gal/nm 0 msl 140 kts
Fri, Sep 5, 2008 KSNA KONT 13:23 13:51 0.48 hrs 0.23 hrs 32.91 nm 5.10 gal 10.70 gal/hr 0.15 gal/nm 0 msl 143 kts
Fri, Sep 5, 2008 KONT KSNA 16:36 17:08 0.53 hrs 0.27 hrs 39.19 nm 5.70 gal 10.69 gal/hr 0.15 gal/nm 0 msl 146 kts
Tue, Sep 16, 2008 KSNA KRAL 21:28 22:13 0.75 hrs 0.29 hrs 42.26 nm 6.00 gal 8.00 gal/hr 0.14 gal/nm 0 msl 144 kts
Tue, Sep 16, 2008 KRAL KSNA 22:26 22:47 0.35 hrs 0.23 hrs 29.48 nm 3.50 gal 10.00 gal/hr 0.12 gal/nm 0 msl 127 kts
Wed, Sep 17, 2008 KSNA KSNA 17:08 17:08 0 hrs 0.00 hrs 0.00 nm 5.70 gal 3420.00 gal/hr 0.00 gal/nm 0 msl 0 kts
Mon, Sep 22, 2008     23:03 23:04 0.02 hrs 0.00 hrs 0.00 nm 0.00 gal 0.00 gal/hr 0.00 gal/nm 0 msl 0 kts
Tue, Sep 23, 2008 KSNA KSNA 23:31 00:56 1.42 hrs 0.88 hrs 116.34 nm 15.90 gal 11.22 gal/hr 0.14 gal/nm 0 msl 132 kts
Wed, Sep 24, 2008 KSNA KRAL 19:45 20:18 0.55 hrs 0.26 hrs 36.28 nm 5.10 gal 9.27 gal/hr 0.14 gal/nm 0 msl 136 kts
Wed, Sep 24, 2008 KRAL KUDD 20:46 21:23 0.6 hrs 0.46 hrs 67.16 nm 8.10 gal 13.50 gal/hr 0.12 gal/nm 0 msl 146 kts
Thu, Sep 25, 2008 KUDD KSNA 00:33 01:18 0.75 hrs 0.59 hrs 90.18 nm 10.70 gal 14.27 gal/hr 0.12 gal/nm 0 msl 152 kts
Fri, Sep 26, 2008 KSNA KSNA 20:58 21:42 0.72 hrs 0.48 hrs 66.87 nm 8.90 gal 12.42 gal/hr 0.13 gal/nm 0 msl 138 kts
Sat, Sep 27, 2008 KSNA KSNA 23:47 00:25 0.63 hrs 0.37 hrs 56.87 nm 7.80 gal 12.32 gal/hr 0.14 gal/nm 0 msl 151 kts
Thu, Oct 2, 2008 KSNA KTOA 01:11 02:09 0.95 hrs 0.52 hrs 76.01 nm 12.40 gal 13.05 gal/hr 0.16 gal/nm 0 msl 144 kts
Thu, Oct 2, 2008 KTOA KSNA 02:51 03:17 0.43 hrs 0.30 hrs 41.36 nm 5.60 gal 12.92 gal/hr 0.14 gal/nm 0 msl 137 kts
Fri, Oct 3, 2008 KSNA KSNA 21:43 22:36 0.88 hrs 0.51 hrs 56.70 nm 8.10 gal 9.19 gal/hr 0.14 gal/nm 0 msl 110 kts
Sun, Oct 5, 2008 KSNA KSNA 19:18 19:22 0.07 hrs 0.00 hrs 0.00 nm 0.20 gal 2.79 gal/hr 0.00 gal/nm 0 msl 0 kts
Sun, Oct 5, 2008 KSNA KSNA 20:16 20:21 0.08 hrs 0.00 hrs 0.00 nm 0.20 gal 2.40 gal/hr 0.00 gal/nm 0 msl 0 kts
Mon, Oct 6, 2008 KSNA KSNA 21:37 23:39 2.02 hrs 1.22 hrs 174.23 nm 23.80 gal 11.80 gal/hr 0.14 gal/nm 0 msl 142 kts
Wed, Oct 8, 2008 KSNA KMMH 21:36 23:42 2.08 hrs 1.66 hrs 273.27 nm 33.40 gal 16.03 gal/hr 0.12 gal/nm 0 msl 164 kts
Thu, Oct 9, 2008 KMMH KSNA 00:16 02:14 1.93 hrs 1.65 hrs 275.22 nm 29.90 gal 15.47 gal/hr 0.11 gal/nm 0 msl 165 kts
Thu, Oct 9, 2008 KSNA KSNA 20:27 21:55 1.45 hrs 1.13 hrs 167.99 nm 18.60 gal 12.83 gal/hr 0.11 gal/nm 0 msl 147 kts
Wed, Oct 15, 2008 KSNA 3O8 21:22 23:09 1.77 hrs 1.36 hrs 208.63 nm 25.70 gal 14.55 gal/hr 0.12 gal/nm 0 msl 152 kts
Wed, Oct 15, 2008 3O8 KSNA 23:37 01:06 1.47 hrs 1.16 hrs 200.39 nm 22.30 gal 15.20 gal/hr 0.11 gal/nm 0 msl 171 kts
Fri, Oct 17, 2008 KSNA KSNA 19:15 20:39 1.38 hrs 0.95 hrs 103.18 nm 14.80 gal 10.75 gal/hr 0.14 gal/nm 0 msl 108 kts
Sat, Oct 18, 2008 KSNA KSNA 17:11 18:40 1.47 hrs 0.95 hrs 116.94 nm 17.80 gal 12.10 gal/hr 0.15 gal/nm 0 msl 123 kts
Mon, Oct 20, 2008 KSNA KSNA 21:12 22:38 1.42 hrs 1.11 hrs 124.46 nm 15.40 gal 10.83 gal/hr 0.12 gal/nm 0 msl 111 kts
Thu, Oct 23, 2008 KSNA KSNA 20:19 21:26 1.1 hrs 0.83 hrs 100.07 nm 14.50 gal 13.18 gal/hr 0.14 gal/nm 0 msl 119 kts
Tue, Oct 28, 2008 KSNA KSNA 21:26 21:26 0 hrs 0.00 hrs 0.00 nm 14.50 gal 8700.00 gal/hr 0.00 gal/nm 0 msl 0 kts
Wed, Oct 29, 2008 KSNA KSNA 21:08 22:39 1.5 hrs 1.14 hrs 126.94 nm 15.10 gal 10.08 gal/hr 0.12 gal/nm 0 msl 110 kts
Thu, Oct 30, 2008 KSNA KRAL 19:03 19:34 0.51 hrs 0.27 hrs 40.19 nm 4.90 gal 9.58 gal/hr 0.12 gal/nm 0 msl 148 kts
Thu, Oct 30, 2008 KRAL KSNA 22:09 22:46 0.6 hrs 0.32 hrs 39.16 nm 5.80 gal 9.67 gal/hr 0.15 gal/nm 0 msl 122 kts
Thu, Oct 30, 2008 KSNA KSNA 23:54 00:39 0.75 hrs 0.39 hrs 56.74 nm 8.30 gal 11.07 gal/hr 0.15 gal/nm 0 msl 143 kts
Sat, Nov 1, 2008 KSNA KSNA 16:11 16:15 0.07 hrs 0.00 hrs 0.00 nm 0.30 gal 4.19 gal/hr 0.00 gal/nm 0 msl 0 kts
Sat, Nov 1, 2008 KSNA KSNA 16:57 17:03 0.1 hrs 0.00 hrs 0.00 nm 0.30 gal 3.00 gal/hr 0.00 gal/nm 0 msl 0 kts
Tue, Nov 4, 2008 KSNA KSNA 21:46 00:26 2.64 hrs 1.36 hrs 177.82 nm 25.30 gal 9.60 gal/hr 0.14 gal/nm 0 msl 130 kts
Wed, Nov 5, 2008 KSNA KSNA 21:32 00:12 2.64 hrs 2.15 hrs 247.93 nm 30.70 gal 11.65 gal/hr 0.12 gal/nm 0 msl 115 kts
Sat, Nov 8, 2008 KSNA KRAL 20:08 20:38 0.49 hrs 0.26 hrs 37.11 nm 4.40 gal 9.07 gal/hr 0.12 gal/nm 0 msl 143 kts
Mon, Nov 10, 2008 KRAL KSNA 22:19 22:47 0.46 hrs 0.28 hrs 36.90 nm 4.70 gal 10.22 gal/hr 0.13 gal/nm 0 msl 131 kts
Tue, Nov 11, 2008 KSNA KSNA 23:23 00:46 1.37 hrs 0.69 hrs 77.04 nm 11.70 gal 8.55 gal/hr 0.15 gal/nm 0 msl 111 kts
Wed, Nov 12, 2008     23:11 23:12 0.02 hrs 0.00 hrs 0.00 nm 0.00 gal 0.00 gal/hr 0.00 gal/nm 0 msl 0 kts
Wed, Nov 12, 2008 KSNA KSNA 23:18 00:56 1.62 hrs 0.77 hrs 85.67 nm 13.50 gal 8.32 gal/hr 0.16 gal/nm 0 msl 111 kts
Mon, Nov 17, 2008     20:00 20:01 0.02 hrs 0.00 hrs 0.00 nm 0.00 gal 0.00 gal/hr 0.00 gal/nm 0 msl 0 kts
Tue, Nov 25, 2008 KSNA KSNA 23:34 23:37 0.06 hrs 0.00 hrs 0.00 nm 0.20 gal 3.53 gal/hr 0.00 gal/nm 0 msl 0 kts
Tue, Nov 25, 2008 KSNA KSNA 23:39 00:37 0.95 hrs 0.71 hrs 76.95 nm 10.80 gal 11.37 gal/hr 0.14 gal/nm 0 msl 108 kts
Fri, Nov 28, 2008 KSNA KSNA 21:19 22:14 0.9 hrs 0.64 hrs 74.41 nm 9.60 gal 10.69 gal/hr 0.13 gal/nm 0 msl 115 kts
Fri, Nov 28, 2008 KSNA KSNA 22:36 22:50 0.23 hrs 0.00 hrs 0.00 nm 0.00 gal 0.00 gal/hr 0.00 gal/nm 0 msl 0 kts
Fri, Nov 28, 2008 KSNA KSNA 23:09 00:49 1.65 hrs 0.78 hrs 84.63 nm 13.20 gal 8.00 gal/hr 0.16 gal/nm 0 msl 108 kts
Mon, Dec 1, 2008 KSNA KSNA 23:25 00:37 1.19 hrs 0.72 hrs 92.26 nm 13.20 gal 11.14 gal/hr 0.14 gal/nm 0 msl 126 kts
Fri, Dec 5, 2008 KSNA KSNA 23:15 00:59 1.7 hrs 0.83 hrs 95.48 nm 14.50 gal 8.52 gal/hr 0.15 gal/nm 0 msl 114 kts
Tue, Dec 9, 2008 KSNA KUDD 15:24 16:32 1.13 hrs 0.89 hrs 125.56 nm 13.70 gal 12.12 gal/hr 0.11 gal/nm 0 msl 140 kts
Tue, Dec 9, 2008 KUDD KSNA 18:01 18:49 0.8 hrs 0.63 hrs 96.07 nm 10.60 gal 13.25 gal/hr 0.11 gal/nm 0 msl 151 kts
Thu, Dec 11, 2008 KSNA KSNA 18:49 18:49 0 hrs 0.00 hrs 0.00 nm 10.60 gal 6360.00 gal/hr 0.00 gal/nm 0 msl 0 kts
Thu, Dec 11, 2008 KSNA KSNA 18:49 18:49 0 hrs 0.00 hrs 0.00 nm 10.60 gal 6360.00 gal/hr 0.00 gal/nm 0 msl 0 kts
Thu, Dec 11, 2008 KSNA KSNA 18:49 18:49 0 hrs 0.00 hrs 0.00 nm 10.60 gal 6360.00 gal/hr 0.00 gal/nm 0 msl 0 kts
Thu, Dec 11, 2008 KSNA KSNA 18:49 18:49 0 hrs 0.00 hrs 0.00 nm 10.60 gal 6360.00 gal/hr 0.00 gal/nm 0 msl 0 kts
Thu, Dec 11, 2008 KSNA KSNA 19:08 21:26 2.27 hrs 1.28 hrs 148.02 nm 22.10 gal 9.74 gal/hr 0.15 gal/nm 0 msl 115 kts
Fri, Dec 12, 2008 KSNA KMYF 21:49 22:58 1.14 hrs 0.70 hrs 89.91 nm 11.60 gal 10.22 gal/hr 0.13 gal/nm 0 msl 128 kts
Fri, Dec 12, 2008 KMYF KSNA 23:16 00:34 1.29 hrs 0.96 hrs 123.79 nm 16.40 gal 12.76 gal/hr 0.13 gal/nm 0 msl 128 kts
Mon, Dec 15, 2008 KSNA KSNA 17:31 17:37 0.1 hrs 0.00 hrs 0.00 nm 0.40 gal 3.93 gal/hr 0.00 gal/nm 0 msl 0 kts
Mon, Dec 15, 2008     19:26 19:28 0.04 hrs 0.00 hrs 0.00 nm 0.10 gal 2.86 gal/hr 0.00 gal/nm 0 msl 0 kts
Thu, Dec 18, 2008 KSNA KSNA 22:30 00:39 2.12 hrs 1.05 hrs 129.86 nm 19.80 gal 9.35 gal/hr 0.15 gal/nm 0 msl 122 kts
Sun, Dec 21, 2008 KSNA KSNA 23:25 00:50 1.4 hrs 0.81 hrs 106.43 nm 15.80 gal 11.27 gal/hr 0.15 gal/nm 0 msl 130 kts
Tue, Dec 23, 2008 KSNA KPSP 17:48 18:37 0.8 hrs 0.52 hrs 87.05 nm 9.70 gal 12.10 gal/hr 0.11 gal/nm 0 msl 166 kts
Tue, Dec 23, 2008 KPSP KSNA 21:09 21:58 0.8 hrs 0.56 hrs 77.89 nm 9.80 gal 12.22 gal/hr 0.13 gal/nm 0 msl 138 kts
Tue, Dec 23, 2008 KSNA KSNA 22:17 22:22 0.09 hrs 0.00 hrs 0.00 nm 0.00 gal 0.00 gal/hr 0.00 gal/nm 0 msl 0 kts
Tue, Dec 23, 2008 KSNA KTNP 22:35 00:03 1.45 hrs 0.93 hrs 145.88 nm 16.20 gal 11.16 gal/hr 0.11 gal/nm 0 msl 156 kts
Wed, Dec 24, 2008 KTNP KSNA 00:18 02:05 1.75 hrs 1.32 hrs 185.74 nm 21.60 gal 12.33 gal/hr 0.12 gal/nm 0 msl 139 kts
Thu, Dec 25, 2008 KSNA KSNA 19:06 19:13 0.12 hrs 0.00 hrs 0.00 nm 0.00 gal 0.00 gal/hr 0.00 gal/nm 0 msl 0 kts
Sat, Dec 27, 2008 KSNA KTOA 22:52 23:16 0.4 hrs 0.20 hrs 27.71 nm 4.20 gal 10.46 gal/hr 0.15 gal/nm 0 msl 137 kts
Sun, Dec 28, 2008 KTOA KSNA 01:09 01:38 0.49 hrs 0.25 hrs 34.38 nm 5.00 gal 10.31 gal/hr 0.15 gal/nm 0 msl 136 kts
Mon, Dec 29, 2008 KSNA KSNA 23:30 01:05 1.57 hrs 0.99 hrs 141.91 nm 16.10 gal 10.27 gal/hr 0.11 gal/nm 0 msl 142 kts
Tue, Dec 30, 2008 KSNA L35 23:47 00:33 0.75 hrs 0.50 hrs 73.25 nm 10.40 gal 13.84 gal/hr 0.14 gal/nm 0 msl 145 kts
Mon, Jan 5, 2009 L35 KSNA 00:18 01:01 0.72 hrs 0.44 hrs 66.89 nm 7.90 gal 11.00 gal/hr 0.12 gal/nm 0 msl 151 kts
Mon, Jan 5, 2009 KSNA KSNA 17:23 17:27 0.07 hrs 0.00 hrs 0.00 nm 0.20 gal 2.93 gal/hr 0.00 gal/nm 0 msl 0 kts
Tue, Jan 6, 2009 KSNA KSNA 00:25 00:28 0.05 hrs 0.00 hrs 0.00 nm 0.10 gal 1.94 gal/hr 0.00 gal/nm 0 msl 0 kts
Tue, Jan 6, 2009 KSNA KSNA 21:54 00:58 3.04 hrs 1.98 hrs 276.43 nm 31.10 gal 10.25 gal/hr 0.11 gal/nm 0 msl 138 kts
Wed, Jan 7, 2009 KSNA KSNA 19:08 19:19 0.19 hrs 0.00 hrs 0.00 nm 0.50 gal 2.70 gal/hr 0.00 gal/nm 0 msl 0 kts
Wed, Jan 7, 2009 KSNA KSNA 22:27 22:30 0.07 hrs 0.00 hrs 0.00 nm 0.20 gal 2.93 gal/hr 0.00 gal/nm 0 msl 0 kts
Thu, Jan 8, 2009 KSNA KSNA 19:19 19:19 0 hrs 0.00 hrs 0.00 nm 0.50 gal 300.00 gal/hr 0.00 gal/nm 0 msl 0 kts
Tue, Jan 13, 2009 KSNA KSNA 23:04 00:27 1.37 hrs 1.01 hrs 115.66 nm 15.70 gal 11.47 gal/hr 0.14 gal/nm 0 msl 114 kts
Wed, Jan 14, 2009 KSNA KSNA 00:27 00:27 0 hrs 0.00 hrs 0.00 nm 15.70 gal 9420.00 gal/hr 0.00 gal/nm 0 msl 0 kts
Wed, Jan 14, 2009 KSNA KSNA 21:27 22:44 1.27 hrs 0.84 hrs 106.36 nm 13.90 gal 10.96 gal/hr 0.13 gal/nm 0 msl 125 kts
Fri, Jan 16, 2009 KSNA F70 02:30 03:06 0.6 hrs 0.31 hrs 42.73 nm 6.10 gal 10.14 gal/hr 0.14 gal/nm 0 msl 135 kts
Fri, Jan 16, 2009 F70 F70 04:06 04:20 0.24 hrs 0.05 hrs 5.44 nm 2.00 gal 8.51 gal/hr 0.37 gal/nm 0 msl 109 kts
Fri, Jan 16, 2009 KNTK KSNA 04:52 06:05 1.2 hrs 0.78 hrs 105.31 nm 22.10 gal 18.39 gal/hr 0.21 gal/nm 0 msl 134 kts
Sat, Jan 17, 2009 KSNA KRAL 18:46 19:17 0.5 hrs 0.28 hrs 35.16 nm 4.40 gal 8.77 gal/hr 0.13 gal/nm 0 msl 124 kts
Sun, Jan 18, 2009 KRAL KSNA 01:32 01:56 0.4 hrs 0.27 hrs 36.86 nm 3.80 gal 9.46 gal/hr 0.10 gal/nm 0 msl 136 kts
Sun, Jan 18, 2009 KSNA KRAL 19:58 20:38 0.67 hrs 0.30 hrs 39.40 nm 4.90 gal 7.33 gal/hr 0.12 gal/nm 0 msl 132 kts
Mon, Jan 19, 2009 KRAL KSNA 01:18 01:42 0.4 hrs 0.26 hrs 37.88 nm 4.00 gal 9.96 gal/hr 0.11 gal/nm 0 msl 144 kts
Mon, Jan 19, 2009 KSNA KMMH 17:10 18:57 1.75 hrs 1.52 hrs 255.42 nm 20.90 gal 11.93 gal/hr 0.08 gal/nm 0 msl 167 kts
Mon, Jan 19, 2009 KMMH KSNA 22:39 00:21 1.69 hrs 1.59 hrs 253.61 nm 21.40 gal 12.70 gal/hr 0.08 gal/nm 0 msl 158 kts
Tue, Jan 20, 2009 KSNA KSNA 21:25 22:35 1.15 hrs 0.79 hrs 89.59 nm 13.10 gal 11.37 gal/hr 0.15 gal/nm 0 msl 113 kts
Thu, Jan 22, 2009 KSNA KSNA 22:44 00:00 1.25 hrs 0.86 hrs 100.62 nm 13.90 gal 11.11 gal/hr 0.14 gal/nm 0 msl 116 kts
Fri, Jan 23, 2009 KSNA KONT 00:39 01:42 1.04 hrs 0.83 hrs 120.72 nm 13.40 gal 12.95 gal/hr 0.11 gal/nm 0 msl 145 kts
Sat, Jan 24, 2009 KONT KSNA 06:38 07:13 0.57 hrs 0.24 hrs 31.63 nm 5.30 gal 9.33 gal/hr 0.17 gal/nm 0 msl 132 kts
Sun, Feb 8, 2009 KSNA KSNA 20:03 20:50 0.77 hrs 0.00 hrs 0.00 nm 2.20 gal 2.86 gal/hr 0.00 gal/nm 0 msl 0 kts
Tue, Feb 10, 2009 KSNA KSNA 21:09 22:50 1.67 hrs 0.90 hrs 100.61 nm 13.90 gal 8.33 gal/hr 0.14 gal/nm 0 msl 110 kts
Wed, Feb 11, 2009 KSNA KSNA 20:18 22:16 1.94 hrs 1.52 hrs 174.41 nm 21.70 gal 11.21 gal/hr 0.12 gal/nm 0 msl 114 kts
Sat, Feb 14, 2009 KSNA KSNA 21:42 23:37 1.9 hrs 1.33 hrs 159.17 nm 17.80 gal 9.36 gal/hr 0.11 gal/nm 0 msl 119 kts
Tue, Feb 17, 2009 KSNA KSNA 00:22 00:40 0.3 hrs 0.00 hrs 0.00 nm 0.00 gal 0.00 gal/hr 0.00 gal/nm 0 msl 0 kts
Wed, Feb 18, 2009 KSNA KSNA 20:12 21:18 1.09 hrs 0.72 hrs 93.16 nm 12.70 gal 11.71 gal/hr 0.14 gal/nm 0 msl 128 kts
Sat, Feb 28, 2009 KSNA KSNA 19:35 19:39 0.07 hrs 0.00 hrs 0.00 nm 0.30 gal 4.39 gal/hr 0.00 gal/nm 0 msl 0 kts
Sat, Feb 28, 2009 KSNA KSNA 19:47 19:54 0.12 hrs 0.00 hrs 0.00 nm 0.30 gal 2.54 gal/hr 0.00 gal/nm 0 msl 0 kts
Sat, Feb 28, 2009 KSNA KSNA 20:05 20:10 0.09 hrs 0.00 hrs 0.00 nm 0.20 gal 2.35 gal/hr 0.00 gal/nm 0 msl 0 kts
Sat, Feb 28, 2009 KSNA KSNA 21:18 21:18 0 hrs 0.00 hrs 0.00 nm 12.70 gal 7620.00 gal/hr 0.00 gal/nm 0 msl 0 kts
Fri, Mar 13, 2009 KSNA KSNA 20:10 20:10 0 hrs 0.00 hrs 0.00 nm 0.20 gal 120.00 gal/hr 0.00 gal/nm 0 msl 0 kts
Fri, Mar 13, 2009 KSNA KSNA 20:10 20:10 0 hrs 0.00 hrs 0.00 nm 0.20 gal 120.00 gal/hr 0.00 gal/nm 0 msl 0 kts
Fri, Mar 13, 2009 KSNA KSNA 20:10 20:10 0 hrs 0.00 hrs 0.00 nm 0.20 gal 120.00 gal/hr 0.00 gal/nm 0 msl 0 kts
Fri, Mar 13, 2009 KSNA KUDD 19:39 20:46 1.1 hrs 0.65 hrs 92.66 nm 10.70 gal 9.71 gal/hr 0.12 gal/nm 0 msl 141 kts
Sat, Mar 14, 2009 KUDD KSNA 00:56 01:57 1 hrs 0.68 hrs 95.41 nm 11.30 gal 11.28 gal/hr 0.12 gal/nm 0 msl 140 kts
Mon, Mar 30, 2009 KSNA KSNA 19:59 20:29 0.5 hrs 0.00 hrs 0.00 nm 0.00 gal 0.00 gal/hr 0.00 gal/nm 0 msl 0 kts
Sun, Apr 12, 2009 KSNA KMMH 16:12 18:16 2.04 hrs 1.82 hrs 261.41 nm 23.70 gal 11.65 gal/hr 0.09 gal/nm 0 msl 143 kts
Sun, Apr 12, 2009 KMMH KRAL 20:37 22:12 1.57 hrs 1.48 hrs 245.05 nm 18.50 gal 11.80 gal/hr 0.08 gal/nm 0 msl 165 kts
Sun, Apr 12, 2009     22:22 22:23 0.02 hrs 0.00 hrs 0.00 nm 0.00 gal 0.00 gal/hr 0.00 gal/nm 0 msl 0 kts
Sun, Apr 12, 2009 KRAL KRAL 22:44 22:44 0 hrs 0.00 hrs 0.00 nm 0.20 gal 120.00 gal/hr 0.00 gal/nm 0 msl 0 kts
Sun, Apr 12, 2009 KRAL KRAL 22:38 22:44 0.1 hrs 0.00 hrs 0.00 nm 0.20 gal 1.97 gal/hr 0.00 gal/nm 0 msl 0 kts
Sun, Apr 12, 2009 KRAL KSNA 22:46 23:04 0.3 hrs 0.23 hrs 29.63 nm 2.90 gal 9.61 gal/hr 0.10 gal/nm 0 msl 131 kts
Thu, Apr 16, 2009 KSNA L35 16:54 17:44 0.82 hrs 0.49 hrs 73.78 nm 10.80 gal 13.20 gal/hr 0.15 gal/nm 0 msl 149 kts
Thu, Apr 16, 2009 L35 KSNA 22:49 23:32 0.72 hrs 0.43 hrs 64.85 nm 7.20 gal 10.02 gal/hr 0.11 gal/nm 0 msl 151 kts
Fri, Apr 17, 2009 KSNA KCMA 18:39 19:42 1.04 hrs 0.57 hrs 78.05 nm 9.30 gal 8.99 gal/hr 0.12 gal/nm 0 msl 136 kts
Fri, Apr 17, 2009 KCMA KSNA 20:43 21:44 1 hrs 0.65 hrs 99.50 nm 11.30 gal 11.28 gal/hr 0.11 gal/nm 0 msl 152 kts
Fri, Apr 17, 2009 KSNA KSNA 23:32 23:32 0 hrs 0.00 hrs 0.00 nm 7.20 gal 4320.00 gal/hr 0.00 gal/nm 0 msl 0 kts
Fri, Apr 17, 2009 KSNA KSNA 23:32 23:32 0 hrs 0.00 hrs 0.00 nm 7.20 gal 4320.00 gal/hr 0.00 gal/nm 0 msl 0 kts
Fri, Apr 17, 2009 KSNA KSNA 23:32 23:32 0 hrs 0.00 hrs 0.00 nm 7.20 gal 4320.00 gal/hr 0.00 gal/nm 0 msl 0 kts
Sat, Apr 18, 2009 KSNA KMMH 16:08 18:06 1.95 hrs 1.73 hrs 256.57 nm 22.90 gal 11.73 gal/hr 0.09 gal/nm 0 msl 147 kts
Sat, Apr 18, 2009 KMMH KRAL 22:17 00:00 1.7 hrs 1.61 hrs 261.36 nm 19.70 gal 11.58 gal/hr 0.08 gal/nm 0 msl 161 kts
Sun, Apr 19, 2009 KRAL KSNA 00:14 00:35 0.34 hrs 0.28 hrs 34.94 nm 3.20 gal 9.55 gal/hr 0.09 gal/nm 0 msl 126 kts
Sun, Apr 19, 2009 KSNA KRAL 21:27 21:57 0.5 hrs 0.31 hrs 40.15 nm 4.70 gal 9.37 gal/hr 0.12 gal/nm 0 msl 129 kts
Sun, Apr 19, 2009     22:00 22:01 0.02 hrs 0.00 hrs 0.00 nm 0.00 gal 0.00 gal/hr 0.00 gal/nm 0 msl 0 kts
Mon, Apr 20, 2009 KRAL KSNA 00:11 00:32 0.35 hrs 0.26 hrs 32.92 nm 3.30 gal 9.38 gal/hr 0.10 gal/nm 0 msl 126 kts
Mon, Apr 20, 2009     00:51 00:52 0.02 hrs 0.00 hrs 0.00 nm 0.10 gal 5.45 gal/hr 0.00 gal/nm 0 msl 0 kts
Mon, Apr 20, 2009 KSNA KMMH 16:11 18:04 1.85 hrs 1.67 hrs 261.91 nm 21.00 gal 11.34 gal/hr 0.08 gal/nm 0 msl 156 kts
Mon, Apr 20, 2009 KMMH KRAL 23:40 01:22 1.67 hrs 1.58 hrs 249.71 nm 19.10 gal 11.45 gal/hr 0.08 gal/nm 0 msl 156 kts
Tue, Apr 21, 2009 KRAL KSNA 01:37 01:57 0.34 hrs 0.22 hrs 28.80 nm 3.00 gal 8.96 gal/hr 0.10 gal/nm 0 msl 132 kts
Wed, Apr 22, 2009 KSNA KSNA 01:57 01:57 0 hrs 0.00 hrs 0.00 nm 3.00 gal 1800.00 gal/hr 0.00 gal/nm 0 msl 0 kts
Fri, Apr 24, 2009 KSNA KGEU 20:37 22:40 2.02 hrs 1.65 hrs 288.96 nm 26.40 gal 13.08 gal/hr 0.09 gal/nm 0 msl 173 kts
Sat, Apr 25, 2009 KSNA KSNA 01:57 01:57 0 hrs 0.00 hrs 0.00 nm 3.00 gal 1800.00 gal/hr 0.00 gal/nm 0 msl 0 kts
Sun, Apr 26, 2009 KGEU KSNA 00:37 02:43 2.07 hrs 1.86 hrs 281.80 nm 28.20 gal 13.63 gal/hr 0.10 gal/nm 0 msl 150 kts
Mon, Apr 27, 2009 KSNA KUDD 00:45 01:36 0.85 hrs 0.63 hrs 96.91 nm 10.60 gal 12.45 gal/hr 0.11 gal/nm 0 msl 153 kts
Wed, Apr 29, 2009 KUDD KSNA 21:55 22:44 0.8 hrs 0.63 hrs 91.70 nm 10.60 gal 13.22 gal/hr 0.12 gal/nm 0 msl 143 kts
Thu, Apr 30, 2009 KSNA KSNA 00:14 01:10 0.94 hrs 0.61 hrs 80.08 nm 11.10 gal 11.87 gal/hr 0.14 gal/nm 0 msl 130 kts
Fri, May 1, 2009 KSNA KAVX 19:18 19:50 0.54 hrs 0.32 hrs 44.40 nm 7.70 gal 14.39 gal/hr 0.17 gal/nm 0 msl 139 kts
Sun, May 3, 2009 KAVX KSNA 18:28 19:01 0.55 hrs 0.36 hrs 51.04 nm 7.10 gal 12.87 gal/hr 0.14 gal/nm 0 msl 141 kts
Wed, May 6, 2009 KSNA KSNA 23:51 00:28 0.62 hrs 0.26 hrs 33.04 nm 5.60 gal 9.06 gal/hr 0.17 gal/nm 0 msl 127 kts
Thu, May 14, 2009 KSNA KSNA 23:53 00:37 0.74 hrs 0.44 hrs 63.75 nm 9.10 gal 12.38 gal/hr 0.14 gal/nm 0 msl 143 kts
Tue, Jun 2, 2009 KSNA KIPL 18:02 19:13 1.17 hrs 0.86 hrs 138.28 nm 15.10 gal 12.92 gal/hr 0.11 gal/nm 0 msl 160 kts
Wed, Jun 3, 2009 KIPL KSNA 00:35 01:38 1.04 hrs 0.88 hrs 136.96 nm 14.90 gal 14.40 gal/hr 0.11 gal/nm 0 msl 155 kts
Fri, Jun 5, 2009 KSNA KSNA 22:41 23:39 0.95 hrs 0.53 hrs 77.39 nm 12.10 gal 12.71 gal/hr 0.16 gal/nm 0 msl 144 kts
Sun, Jun 7, 2009 KSNA KSNA 20:01 21:04 1.05 hrs 0.73 hrs 104.70 nm 13.00 gal 12.36 gal/hr 0.12 gal/nm 0 msl 142 kts
Tue, Jun 9, 2009 KSNA KTRM 16:48 17:49 1 hrs 0.71 hrs 110.46 nm 12.80 gal 12.78 gal/hr 0.12 gal/nm 0 msl 155 kts
Tue, Jun 9, 2009 KTRM KSNA 22:04 23:04 0.99 hrs 0.73 hrs 104.52 nm 12.10 gal 12.28 gal/hr 0.12 gal/nm 0 msl 141 kts
Thu, Jun 11, 2009 KSNA KSNA 23:04 23:04 0 hrs 0.00 hrs 0.00 nm 12.10 gal 7260.00 gal/hr 0.00 gal/nm 0 msl 0 kts
Fri, Jun 12, 2009 KSNA KSNA 22:24 22:30 0.1 hrs 0.00 hrs 0.00 nm 0.30 gal 2.95 gal/hr 0.00 gal/nm 0 msl 0 kts
Fri, Jun 12, 2009 KSNA KSNA 23:11 23:15 0.07 hrs 0.00 hrs 0.00 nm 0.20 gal 2.93 gal/hr 0.00 gal/nm 0 msl 0 kts
Tue, Jun 16, 2009 KSNA KSNA 17:36 17:40 0.07 hrs 0.00 hrs 0.00 nm 0.20 gal 2.93 gal/hr 0.00 gal/nm 0 msl 0 kts
Tue, Jun 16, 2009     21:10 21:11 0.02 hrs 0.00 hrs 0.00 nm 0.00 gal 0.00 gal/hr 0.00 gal/nm 0 msl 0 kts
Tue, Jun 16, 2009 KSNA KSNA 21:27 21:31 0.07 hrs 0.00 hrs 0.00 nm 0.20 gal 2.93 gal/hr 0.00 gal/nm 0 msl 0 kts
Tue, Jun 16, 2009 KSNA L35 22:34 23:17 0.72 hrs 0.50 hrs 70.74 nm 9.70 gal 13.50 gal/hr 0.14 gal/nm 0 msl 141 kts
Wed, Jun 17, 2009 L35 KSNA 01:48 02:27 0.65 hrs 0.47 hrs 68.98 nm 7.90 gal 12.12 gal/hr 0.11 gal/nm 0 msl 147 kts
Thu, Jun 18, 2009 KSNA KSNA 20:52 21:01 0.15 hrs 0.00 hrs 0.00 nm 0.00 gal 0.00 gal/hr 0.00 gal/nm 0 msl 0 kts
Thu, Jun 18, 2009 KSNA KSNA 21:09 23:43 2.54 hrs 1.53 hrs 207.66 nm 25.10 gal 9.90 gal/hr 0.12 gal/nm 0 msl 135 kts
Fri, Jun 19, 2009 KSNA KMMH 18:17 20:04 1.75 hrs 1.53 hrs 257.56 nm 21.10 gal 12.05 gal/hr 0.08 gal/nm 0 msl 166 kts
Fri, Jun 19, 2009 KMMH KRAL 20:18 22:02 1.7 hrs 1.63 hrs 259.36 nm 21.30 gal 12.52 gal/hr 0.08 gal/nm 0 msl 158 kts
Fri, Jun 19, 2009 KRAL KSNA 22:23 22:44 0.35 hrs 0.25 hrs 32.86 nm 3.40 gal 9.67 gal/hr 0.10 gal/nm 0 msl 131 kts
Wed, Jul 1, 2009 KSNA KSNA 00:40 01:21 0.69 hrs 0.43 hrs 58.40 nm 8.60 gal 12.55 gal/hr 0.15 gal/nm 0 msl 134 kts
Sun, Jul 5, 2009 KSNA L35 22:57 23:45 0.8 hrs 0.50 hrs 71.87 nm 9.60 gal 11.98 gal/hr 0.13 gal/nm 0 msl 143 kts
Mon, Jul 6, 2009 L35 KSNA 01:58 02:37 0.65 hrs 0.46 hrs 63.63 nm 7.00 gal 10.74 gal/hr 0.11 gal/nm 0 msl 138 kts
Wed, Jul 8, 2009 KSNA KSQL 21:31 23:59 2.42 hrs 2.08 hrs 336.47 nm 37.80 gal 15.63 gal/hr 0.11 gal/nm 0 msl 160 kts
Fri, Jul 10, 2009 KSQL KSNA 19:18 21:47 2.45 hrs 2.13 hrs 341.47 nm 39.50 gal 16.11 gal/hr 0.12 gal/nm 0 msl 159 kts
Mon, Jul 13, 2009 KSNA L35 22:43 23:31 0.79 hrs 0.48 hrs 72.37 nm 10.30 gal 13.12 gal/hr 0.14 gal/nm 0 msl 148 kts
Tue, Jul 14, 2009 L35 KSNA 01:02 01:47 0.75 hrs 0.52 hrs 75.15 nm 8.20 gal 10.91 gal/hr 0.11 gal/nm 0 msl 144 kts
Tue, Jul 14, 2009 KSNA KSQL 18:56 21:23 2.4 hrs 2.03 hrs 331.75 nm 30.30 gal 12.62 gal/hr 0.09 gal/nm 0 msl 162 kts
Wed, Jul 15, 2009 KSNA KSNA 01:47 01:47 0 hrs 0.00 hrs 0.00 nm 8.20 gal 4920.00 gal/hr 0.00 gal/nm 0 msl 0 kts
Wed, Jul 15, 2009 KSQL KSNA 18:12 21:10 2.92 hrs 2.39 hrs 366.48 nm 34.90 gal 11.96 gal/hr 0.10 gal/nm 0 msl 152 kts
Tue, Jul 21, 2009 KSNA KAVX 22:09 22:47 0.62 hrs 0.34 hrs 46.00 nm 7.20 gal 11.64 gal/hr 0.16 gal/nm 0 msl 133 kts
Wed, Jul 22, 2009 KAVX KSNA 00:32 01:18 0.77 hrs 0.58 hrs 83.61 nm 11.00 gal 14.32 gal/hr 0.13 gal/nm 0 msl 144 kts
Wed, Jul 22, 2009 KSNA KAVX 19:05 19:53 0.8 hrs 0.44 hrs 61.89 nm 8.80 gal 10.98 gal/hr 0.14 gal/nm 0 msl 139 kts
Wed, Jul 22, 2009 KAVX KSNA 21:12 21:45 0.54 hrs 0.38 hrs 54.78 nm 6.90 gal 12.90 gal/hr 0.13 gal/nm 0 msl 144 kts
Fri, Aug 7, 2009 KSNA KSNA 19:15 19:20 0.09 hrs 0.00 hrs 0.00 nm 0.00 gal 0.00 gal/hr 0.00 gal/nm 0 msl 0 kts
Fri, Aug 7, 2009 KSNA KSNA 19:22 19:28 0.1 hrs 0.00 hrs 0.00 nm 0.00 gal 0.00 gal/hr 0.00 gal/nm 0 msl 0 kts
Fri, Aug 7, 2009 KSNA KSNA 19:40 19:48 0.15 hrs 0.00 hrs 0.00 nm 0.00 gal 0.00 gal/hr 0.00 gal/nm 0 msl 0 kts
Mon, Aug 10, 2009     15:25 15:26 0.02 hrs 0.00 hrs 0.00 nm 0.00 gal 0.00 gal/hr 0.00 gal/nm 0 msl 0 kts
Mon, Aug 10, 2009 KSNA KSNA 16:56 17:23 0.45 hrs 0.00 hrs 0.00 nm 0.00 gal 0.00 gal/hr 0.00 gal/nm 0 msl 0 kts
Wed, Aug 12, 2009 KSNA KRNO 18:29 21:09 2.62 hrs 2.37 hrs 387.10 nm 36.20 gal 13.83 gal/hr 0.09 gal/nm 0 msl 162 kts
Thu, Aug 13, 2009 KRNO KSNA 20:12 23:02 2.79 hrs 2.45 hrs 405.71 nm 34.60 gal 12.42 gal/hr 0.09 gal/nm 0 msl 164 kts
Sat, Aug 15, 2009 KSNA L35 02:38 03:20 0.69 hrs 0.44 hrs 70.13 nm 9.50 gal 13.87 gal/hr 0.14 gal/nm 0 msl 157 kts
Sat, Aug 15, 2009 KSNA KSNA 23:02 23:02 0 hrs 0.00 hrs 0.00 nm 34.60 gal 20760.00 gal/hr 0.00 gal/nm 0 msl 0 kts
Mon, Aug 17, 2009 L35 KSNA 03:09 03:50 0.67 hrs 0.49 hrs 67.28 nm 8.50 gal 12.72 gal/hr 0.13 gal/nm 0 msl 135 kts
Wed, Aug 19, 2009 KSNA KSNA 21:26 22:44 1.27 hrs 0.88 hrs 110.00 nm 13.20 gal 10.41 gal/hr 0.12 gal/nm 0 msl 123 kts
Thu, Aug 20, 2009 KSNA KSNA 03:50 03:50 0 hrs 0.00 hrs 0.00 nm 8.50 gal 5100.00 gal/hr 0.00 gal/nm 0 msl 0 kts
Thu, Aug 27, 2009 KSNA KRAL 20:45 21:21 0.59 hrs 0.27 hrs 36.88 nm 4.20 gal 7.18 gal/hr 0.11 gal/nm 0 msl 137 kts
Fri, Aug 28, 2009 KRAL KSNA 01:11 01:34 0.39 hrs 0.25 hrs 31.32 nm 3.70 gal 9.61 gal/hr 0.12 gal/nm 0 msl 124 kts
Mon, Aug 31, 2009 KSNA KSNA 21:18 21:31 0.22 hrs 0.00 hrs 0.00 nm 1.00 gal 4.58 gal/hr 0.00 gal/nm 0 msl 0 kts
Thu, Sep 3, 2009 KSNA KSNA 18:23 19:48 1.4 hrs 0.00 hrs 0.00 nm 0.00 gal 0.00 gal/hr 0.00 gal/nm 0 msl 0 kts
Thu, Sep 3, 2009 KSNA KSNA 22:19 22:34 0.25 hrs 0.00 hrs 0.00 nm 0.00 gal 0.00 gal/hr 0.00 gal/nm 0 msl 0 kts
Wed, Sep 9, 2009 KSNA KSNA 22:15 22:26 0.17 hrs 0.00 hrs 0.00 nm 0.60 gal 3.56 gal/hr 0.00 gal/nm 0 msl 0 kts
Wed, Sep 9, 2009     23:08 23:12 0.07 hrs 0.00 hrs 0.00 nm 0.40 gal 5.85 gal/hr 0.00 gal/nm 0 msl 0 kts
Wed, Sep 9, 2009 KSNA KSNA 23:43 23:46 0.05 hrs 0.00 hrs 0.00 nm 0.20 gal 3.87 gal/hr 0.00 gal/nm 0 msl 0 kts
Thu, Sep 10, 2009 KSNA KSNA 23:22 00:04 0.69 hrs 0.42 hrs 59.70 nm 9.00 gal 13.14 gal/hr 0.15 gal/nm 0 msl 142 kts
Fri, Sep 25, 2009 KSNA KSJC 01:20 03:46 2.39 hrs 1.92 hrs 309.65 nm 34.90 gal 14.63 gal/hr 0.11 gal/nm 0 msl 160 kts
Sat, Sep 26, 2009 KSJC KSNA 22:42 01:08 2.39 hrs 2.05 hrs 330.70 nm 36.20 gal 15.18 gal/hr 0.11 gal/nm 0 msl 160 kts
Thu, Oct 1, 2009 KSNA KRAL 17:06 17:42 0.59 hrs 0.30 hrs 37.94 nm 4.50 gal 7.69 gal/hr 0.12 gal/nm 0 msl 125 kts
Thu, Oct 1, 2009 KRAL KSNA 22:59 23:21 0.37 hrs 0.26 hrs 34.93 nm 3.60 gal 9.77 gal/hr 0.10 gal/nm 0 msl 133 kts
Sat, Oct 3, 2009 KSNA KSNA 01:45 02:41 0.92 hrs 0.49 hrs 65.49 nm 10.20 gal 11.11 gal/hr 0.16 gal/nm 0 msl 132 kts
Sat, Oct 3, 2009 KSNA KRAL 18:55 19:21 0.44 hrs 0.25 hrs 33.67 nm 3.60 gal 8.28 gal/hr 0.11 gal/nm 0 msl 134 kts
Sat, Oct 3, 2009 KRAL KSNA 22:16 22:38 0.37 hrs 0.24 hrs 30.00 nm 3.50 gal 9.50 gal/hr 0.12 gal/nm 0 msl 123 kts
Fri, Oct 9, 2009 KSNA KRAL 20:53 21:35 0.7 hrs 0.37 hrs 50.35 nm 5.60 gal 7.98 gal/hr 0.11 gal/nm 0 msl 136 kts
Fri, Oct 9, 2009 KRAL KSNA 22:56 23:27 0.52 hrs 0.28 hrs 34.64 nm 3.70 gal 7.14 gal/hr 0.11 gal/nm 0 msl 125 kts
Sun, Oct 11, 2009 KRAL KRAL 21:32 21:32 0 hrs 0.00 hrs 0.00 nm 3.80 gal 2280.00 gal/hr 0.00 gal/nm 0 msl 0 kts
Sun, Oct 11, 2009 KSNA KRAL 21:02 21:32 0.5 hrs 0.26 hrs 34.28 nm 3.80 gal 7.57 gal/hr 0.11 gal/nm 0 msl 131 kts
Mon, Oct 12, 2009 KRAL KSNA 00:09 00:28 0.32 hrs 0.22 hrs 29.40 nm 3.10 gal 9.74 gal/hr 0.11 gal/nm 0 msl 134 kts
Mon, Oct 12, 2009 KRAL KRAL 21:32 21:32 0 hrs 0.00 hrs 0.00 nm 3.80 gal 2280.00 gal/hr 0.00 gal/nm 0 msl 0 kts
Thu, Oct 15, 2009 KSNA KMMH 19:31 21:29 1.94 hrs 1.73 hrs 262.70 nm 22.00 gal 11.37 gal/hr 0.08 gal/nm 0 msl 151 kts
Fri, Oct 16, 2009 KMMH KHND 19:15 20:49 1.54 hrs 1.40 hrs 222.57 nm 17.80 gal 11.60 gal/hr 0.08 gal/nm 0 msl 157 kts
Fri, Oct 16, 2009     20:59 21:01 0.04 hrs 0.00 hrs 0.00 nm 0.00 gal 0.00 gal/hr 0.00 gal/nm 0 msl 0 kts
Sat, Oct 17, 2009 KHND KRAL 00:45 02:01 1.25 hrs 1.10 hrs 187.91 nm 14.70 gal 11.74 gal/hr 0.08 gal/nm 0 msl 169 kts
Sat, Oct 17, 2009 KSNA KSNA 02:30 02:30 0 hrs 0.00 hrs 0.00 nm 3.00 gal 1800.00 gal/hr 0.00 gal/nm 0 msl 0 kts
Sat, Oct 17, 2009 KRAL KSNA 02:11 02:30 0.32 hrs 0.20 hrs 28.92 nm 3.00 gal 9.42 gal/hr 0.10 gal/nm 0 msl 143 kts
Wed, Oct 21, 2009 KSNA KSNA 22:24 23:54 1.49 hrs 0.88 hrs 111.86 nm 16.50 gal 11.11 gal/hr 0.15 gal/nm 0 msl 126 kts
Thu, Oct 22, 2009 KSNA KSNA 02:30 02:30 0 hrs 0.00 hrs 0.00 nm 3.00 gal 1800.00 gal/hr 0.00 gal/nm 0 msl 0 kts
Thu, Oct 22, 2009 KSNA KSNA 02:30 02:30 0 hrs 0.00 hrs 0.00 nm 3.00 gal 1800.00 gal/hr 0.00 gal/nm 0 msl 0 kts
Sat, Oct 31, 2009 KSNA KRAL 21:05 21:34 0.49 hrs 0.30 hrs 38.28 nm 4.50 gal 9.28 gal/hr 0.12 gal/nm 0 msl 127 kts
Sun, Nov 1, 2009 KSNA KSNA 01:11 01:11 0 hrs 0.00 hrs 0.00 nm 2.90 gal 1740.00 gal/hr 0.00 gal/nm 0 msl 0 kts
Sun, Nov 1, 2009 KRAL KSNA 00:54 01:11 0.29 hrs 0.23 hrs 29.44 nm 2.90 gal 10.18 gal/hr 0.10 gal/nm 0 msl 129 kts
Mon, Nov 2, 2009 KSNA KHND 19:01 20:34 1.52 hrs 1.25 hrs 196.60 nm 17.60 gal 11.59 gal/hr 0.09 gal/nm 0 msl 156 kts
Tue, Nov 3, 2009 KHND KRAL 23:20 00:40 1.32 hrs 1.23 hrs 193.56 nm 16.20 gal 12.29 gal/hr 0.08 gal/nm 0 msl 156 kts
Wed, Nov 4, 2009 KRAL KSNA 00:51 01:10 0.32 hrs 0.21 hrs 29.50 nm 3.40 gal 10.68 gal/hr 0.12 gal/nm 0 msl 140 kts
Sun, Nov 8, 2009 KSNA L35 16:53 17:34 0.67 hrs 0.47 hrs 68.84 nm 8.50 gal 12.72 gal/hr 0.12 gal/nm 0 msl 146 kts
Sun, Nov 8, 2009 L35 KSNA 21:39 22:17 0.64 hrs 0.43 hrs 65.48 nm 7.30 gal 11.50 gal/hr 0.11 gal/nm 0 msl 153 kts
Fri, Nov 20, 2009 KSNA KGCN 19:31 21:51 2.3 hrs 1.85 hrs 330.80 nm 28.30 gal 12.30 gal/hr 0.09 gal/nm 0 msl 177 kts
Fri, Nov 20, 2009 KGCN KSNA 22:34 01:51 3.22 hrs 2.97 hrs 442.22 nm 49.40 gal 15.35 gal/hr 0.11 gal/nm 0 msl 148 kts
Mon, Nov 23, 2009 KSNA KMMH 17:16 19:12 1.9 hrs 1.69 hrs 254.67 nm 22.90 gal 12.04 gal/hr 0.09 gal/nm 0 msl 149 kts
Mon, Nov 23, 2009 KMMH KHND 22:43 00:06 1.37 hrs 1.30 hrs 219.95 nm 16.70 gal 12.20 gal/hr 0.08 gal/nm 0 msl 167 kts
Tue, Nov 24, 2009     21:13 21:14 0.02 hrs 0.00 hrs 0.00 nm 0.10 gal 5.45 gal/hr 0.00 gal/nm 0 msl 0 kts
Tue, Nov 24, 2009 KHND KRAL 21:20 22:26 1.09 hrs 0.98 hrs 174.23 nm 13.70 gal 12.63 gal/hr 0.08 gal/nm 0 msl 176 kts
Tue, Nov 24, 2009 KRAL KSNA 22:36 22:52 0.27 hrs 0.21 hrs 29.25 nm 2.70 gal 10.06 gal/hr 0.09 gal/nm 0 msl 139 kts
Mon, Nov 30, 2009 KSNA KMMH 18:13 20:10 1.92 hrs 1.74 hrs 261.14 nm 23.10 gal 12.04 gal/hr 0.09 gal/nm 0 msl 148 kts
Tue, Dec 1, 2009 KMMH KRAL 21:47 23:24 1.6 hrs 1.50 hrs 252.23 nm 19.10 gal 11.93 gal/hr 0.08 gal/nm 0 msl 167 kts
Tue, Dec 1, 2009 KRAL KSNA 23:33 23:54 0.35 hrs 0.25 hrs 31.17 nm 3.10 gal 8.82 gal/hr 0.10 gal/nm 0 msl 123 kts
Wed, Dec 23, 2009     17:56 17:57 0.02 hrs 0.00 hrs 0.00 nm 0.00 gal 0.00 gal/hr 0.00 gal/nm 0 msl 0 kts
Wed, Dec 23, 2009 KSNA KMMH 18:09 20:32 2.34 hrs 2.04 hrs 270.13 nm 28.60 gal 12.25 gal/hr 0.11 gal/nm 0 msl 131 kts
Wed, Dec 23, 2009 KMMH KRAL 23:56 01:28 1.52 hrs 1.37 hrs 247.47 nm 17.80 gal 11.72 gal/hr 0.07 gal/nm 0 msl 179 kts
Thu, Dec 24, 2009 KRAL KSNA 01:45 02:08 0.39 hrs 0.23 hrs 30.74 nm 3.60 gal 9.35 gal/hr 0.12 gal/nm 0 msl 135 kts
Wed, Jan 6, 2010 KSNA KHND 22:24 00:04 1.64 hrs 1.23 hrs 198.08 nm 21.20 gal 12.97 gal/hr 0.11 gal/nm 0 msl 159 kts
Sun, Jan 10, 2010 KHND KHND 21:54 22:16 0.37 hrs 0.00 hrs 0.00 nm 1.00 gal 2.71 gal/hr 0.00 gal/nm 0 msl 0 kts
Sun, Jan 10, 2010 KHND KSNA 22:20 00:06 1.74 hrs 1.33 hrs 207.35 nm 20.40 gal 11.76 gal/hr 0.10 gal/nm 0 msl 154 kts
Mon, Jan 11, 2010 KSNA KSNA 01:10 01:53 0.7 hrs 0.43 hrs 54.49 nm 7.70 gal 10.97 gal/hr 0.14 gal/nm 0 msl 127 kts
Fri, Jan 15, 2010 KSNA KMMH 16:55 18:47 1.84 hrs 1.59 hrs 254.18 nm 20.70 gal 11.28 gal/hr 0.08 gal/nm 0 msl 158 kts
Fri, Jan 15, 2010 KMMH KRAL 22:07 23:51 1.72 hrs 1.63 hrs 254.51 nm 20.20 gal 11.76 gal/hr 0.08 gal/nm 0 msl 155 kts
Sat, Jan 16, 2010 KRAL KSNA 00:01 00:21 0.34 hrs 0.23 hrs 30.47 nm 3.00 gal 8.96 gal/hr 0.10 gal/nm 0 msl 134 kts
Sat, Jan 16, 2010 KSNA KAVX 20:37 21:15 0.64 hrs 0.33 hrs 44.66 nm 6.90 gal 10.87 gal/hr 0.15 gal/nm 0 msl 133 kts
Sat, Jan 16, 2010 KAVX KSNA 22:27 22:59 0.54 hrs 0.38 hrs 54.67 nm 7.20 gal 13.46 gal/hr 0.13 gal/nm 0 msl 145 kts
Thu, Jan 28, 2010 KSNA KMMH 16:29 18:32 2.02 hrs 1.78 hrs 256.24 nm 24.80 gal 12.29 gal/hr 0.10 gal/nm 0 msl 143 kts
Thu, Jan 28, 2010 KMMH KRAL 23:41 01:11 1.49 hrs 1.40 hrs 251.09 nm 17.70 gal 11.92 gal/hr 0.07 gal/nm 0 msl 177 kts
Fri, Jan 29, 2010 KRAL KSNA 01:20 01:41 0.34 hrs 0.22 hrs 28.99 nm 3.20 gal 9.55 gal/hr 0.11 gal/nm 0 msl 133 kts
Wed, Feb 3, 2010 KSNA KSNA 01:41 01:41 0 hrs 0.00 hrs 0.00 nm 3.20 gal 1920.00 gal/hr 0.00 gal/nm 0 msl 0 kts
Thu, Feb 11, 2010 KSNA KRAL 17:02 17:28 0.42 hrs 0.25 hrs 36.31 nm 4.10 gal 9.80 gal/hr 0.11 gal/nm 0 msl 144 kts
Thu, Feb 11, 2010 KRAL KMMH 17:37 19:23 1.75 hrs 1.63 hrs 249.45 nm 22.90 gal 13.07 gal/hr 0.09 gal/nm 0 msl 151 kts
Thu, Feb 11, 2010 KMMH KRAL 23:00 00:35 1.55 hrs 1.46 hrs 249.40 nm 19.40 gal 12.50 gal/hr 0.08 gal/nm 0 msl 169 kts
Fri, Feb 12, 2010 KRAL KSNA 00:46 01:10 0.4 hrs 0.28 hrs 39.89 nm 4.60 gal 11.45 gal/hr 0.12 gal/nm 0 msl 140 kts
Sat, Feb 13, 2010 KSNA KAVX 20:16 20:54 0.64 hrs 0.34 hrs 48.62 nm 6.90 gal 10.87 gal/hr 0.14 gal/nm 0 msl 141 kts
Sat, Feb 13, 2010 KAVX KSNA 22:09 22:52 0.72 hrs 0.53 hrs 77.14 nm 10.00 gal 13.92 gal/hr 0.13 gal/nm 0 msl 143 kts
Wed, Feb 17, 2010 KSNA KPSP 19:08 20:01 0.89 hrs 0.62 hrs 89.08 nm 10.90 gal 12.32 gal/hr 0.12 gal/nm 0 msl 143 kts
Wed, Feb 17, 2010 KPSP KSNA 23:11 00:05 0.9 hrs 0.57 hrs 80.75 nm 10.50 gal 11.65 gal/hr 0.13 gal/nm 0 msl 141 kts
Thu, Feb 18, 2010 KSNA KSNA 18:18 18:30 0.2 hrs 0.00 hrs 0.00 nm 1.00 gal 4.96 gal/hr 0.00 gal/nm 0 msl 0 kts
Thu, Feb 18, 2010     21:33 21:34 0.02 hrs 0.00 hrs 0.00 nm 0.00 gal 0.00 gal/hr 0.00 gal/nm 0 msl 0 kts
Fri, Feb 19, 2010 KSNA KSNA 00:25 00:30 0.09 hrs 0.00 hrs 0.00 nm 0.30 gal 3.53 gal/hr 0.00 gal/nm 0 msl 0 kts
Tue, Feb 23, 2010 KSNA KSNA 00:40 01:04 0.4 hrs 0.00 hrs 0.00 nm 0.00 gal 0.00 gal/hr 0.00 gal/nm 0 msl 0 kts
Wed, Feb 24, 2010 KSNA KSNA 00:20 00:24 0.07 hrs 0.00 hrs 0.00 nm 0.00 gal 0.00 gal/hr 0.00 gal/nm 0 msl 0 kts
Wed, Feb 24, 2010 KSNA KSNA 21:01 22:36 1.57 hrs 0.78 hrs 95.14 nm 14.80 gal 9.44 gal/hr 0.16 gal/nm 0 msl 120 kts
Wed, May 26, 2010 KPHX KSNA 20:50 23:12 2.34 hrs 2.04 hrs 309.69 nm 32.20 gal 13.79 gal/hr 0.10 gal/nm 0 msl 150 kts
Thu, May 27, 2010 KSNA KSNA 23:12 23:12 0 hrs 0.00 hrs 0.00 nm 32.20 gal 19320.00 gal/hr 0.00 gal/nm 0 msl 0 kts
Thu, May 27, 2010 KSNA F70 21:56 23:22 1.42 hrs 1.04 hrs 124.88 nm 18.20 gal 12.83 gal/hr 0.15 gal/nm 0 msl 119 kts
Fri, May 28, 2010 F70 KSNA 00:22 01:03 0.69 hrs 0.48 hrs 69.79 nm 9.10 gal 13.28 gal/hr 0.13 gal/nm 0 msl 145 kts
Sat, May 29, 2010     14:45 14:48 0.05 hrs 0.00 hrs 0.00 nm 0.10 gal 1.94 gal/hr 0.00 gal/nm 0 msl 0 kts
Sat, May 29, 2010 KSNA KMMH 14:49 16:51 2 hrs 1.77 hrs 255.55 nm 22.90 gal 11.44 gal/hr 0.09 gal/nm 0 msl 143 kts
Sat, May 29, 2010 KMMH KRAL 21:48 23:27 1.64 hrs 1.51 hrs 257.06 nm 17.90 gal 10.95 gal/hr 0.07 gal/nm 0 msl 169 kts
Sun, May 30, 2010 KRAL KSNA 00:53 01:12 0.32 hrs 0.23 hrs 29.34 nm 3.00 gal 9.42 gal/hr 0.10 gal/nm 0 msl 129 kts
Fri, Jun 4, 2010 KSNA KNZJ 21:03 22:56 1.85 hrs 1.30 hrs 198.60 nm 23.90 gal 12.91 gal/hr 0.12 gal/nm 0 msl 151 kts
Sun, Jun 6, 2010 KNZJ KNZJ 22:56 22:56 0 hrs 0.00 hrs 0.00 nm 23.90 gal 14340.00 gal/hr 0.00 gal/nm 0 msl 0 kts
Tue, Jun 8, 2010 KSNA KSNA 15:00 15:04 0.07 hrs 0.00 hrs 0.00 nm 0.30 gal 4.39 gal/hr 0.00 gal/nm 0 msl 0 kts
Thu, Jun 10, 2010     22:21 22:23 0.04 hrs 0.00 hrs 0.00 nm 0.40 gal 11.43 gal/hr 0.00 gal/nm 0 msl 0 kts
Thu, Jun 10, 2010     22:34 22:37 0.05 hrs 0.00 hrs 0.00 nm 0.10 gal 1.94 gal/hr 0.00 gal/nm 0 msl 0 kts
Mon, Jun 14, 2010 KSNA KMMH 16:34 18:36 2.02 hrs 1.67 hrs 255.28 nm 22.90 gal 11.35 gal/hr 0.09 gal/nm 0 msl 153 kts
Wed, Jun 16, 2010 KMMH KRAL 22:32 00:14 1.67 hrs 1.57 hrs 261.29 nm 19.50 gal 11.69 gal/hr 0.07 gal/nm 0 msl 165 kts
Thu, Jun 17, 2010 KRAL KSNA 00:25 00:44 0.32 hrs 0.24 hrs 30.00 nm 2.70 gal 8.48 gal/hr 0.09 gal/nm 0 msl 123 kts
Thu, Jun 17, 2010     17:38 17:43 0.09 hrs 0.00 hrs 0.00 nm 0.50 gal 5.88 gal/hr 0.00 gal/nm 0 msl 0 kts
Thu, Jun 17, 2010 KSNA KSNA 21:23 21:28 0.09 hrs 0.00 hrs 0.00 nm 0.80 gal 9.41 gal/hr 0.00 gal/nm 0 msl 0 kts
Sat, Jun 19, 2010 KSNA KAVX 18:52 19:46 0.89 hrs 0.47 hrs 62.84 nm 8.90 gal 10.06 gal/hr 0.14 gal/nm 0 msl 133 kts
Sat, Jun 19, 2010 KAVX KSNA 21:18 22:02 0.72 hrs 0.50 hrs 70.29 nm 8.80 gal 12.25 gal/hr 0.13 gal/nm 0 msl 139 kts
Sat, Jun 19, 2010 KSNA KMMH 23:21 01:07 1.74 hrs 1.61 hrs 253.05 nm 20.10 gal 11.59 gal/hr 0.08 gal/nm 0 msl 156 kts
Sun, Jun 20, 2010 KMMH KRAL 20:44 22:27 1.7 hrs 1.60 hrs 249.51 nm 19.70 gal 11.58 gal/hr 0.08 gal/nm 0 msl 155 kts
Sun, Jun 20, 2010 KRAL KSNA 22:56 23:19 0.39 hrs 0.28 hrs 34.68 nm 3.40 gal 8.83 gal/hr 0.10 gal/nm 0 msl 125 kts
Tue, Jun 22, 2010 KSNA KMMH 16:06 17:54 1.77 hrs 1.63 hrs 253.12 nm 20.70 gal 11.71 gal/hr 0.08 gal/nm 0 msl 154 kts
Wed, Jun 23, 2010 KMMH KRAL 20:12 22:01 1.79 hrs 1.68 hrs 257.31 nm 21.10 gal 11.82 gal/hr 0.08 gal/nm 0 msl 152 kts
Wed, Jun 23, 2010 KRAL KSNA 22:16 22:35 0.32 hrs 0.22 hrs 29.14 nm 3.10 gal 9.74 gal/hr 0.11 gal/nm 0 msl 133 kts
Sat, Jul 3, 2010 KSNA KMMH 20:56 22:49 1.85 hrs 1.64 hrs 253.61 nm 20.90 gal 11.29 gal/hr 0.08 gal/nm 0 msl 153 kts
Sun, Jul 4, 2010 KMMH KRAL 20:04 21:47 1.69 hrs 1.56 hrs 246.12 nm 18.40 gal 10.92 gal/hr 0.07 gal/nm 0 msl 157 kts
Sun, Jul 4, 2010 KRAL KSNA 21:58 22:23 0.42 hrs 0.30 hrs 36.42 nm 3.80 gal 9.08 gal/hr 0.10 gal/nm 0 msl 121 kts
Thu, Jul 8, 2010 KSNA KSNA 22:23 22:23 0 hrs 0.00 hrs 0.00 nm 3.80 gal 2280.00 gal/hr 0.00 gal/nm 0 msl 0 kts
Sun, Jul 18, 2010 KSNA L35 16:26 17:12 0.75 hrs 0.49 hrs 70.23 nm 9.30 gal 12.37 gal/hr 0.13 gal/nm 0 msl 142 kts
Sun, Jul 18, 2010 L35 KSNA 20:46 21:35 0.8 hrs 0.62 hrs 0.00 nm 9.80 gal 12.22 gal/hr 0.00 gal/nm 0 msl 0 kts
Tue, Jul 20, 2010 KSNA KSNA 02:14 03:06 0.87 hrs 0.49 hrs 65.45 nm 9.10 gal 10.48 gal/hr 0.14 gal/nm 0 msl 132 kts
Wed, Aug 11, 2010 KSNA KSNA 02:19 02:26 0.12 hrs 0.00 hrs 0.00 nm 0.00 gal 0.00 gal/hr 0.00 gal/nm 0 msl 0 kts
Wed, Aug 11, 2010 KSNA KSNA 03:01 03:10 0.15 hrs 0.00 hrs 0.00 nm 0.00 gal 0.00 gal/hr 0.00 gal/nm 0 msl 0 kts
Fri, Aug 13, 2010 KSNA KSNA 02:38 04:17 1.64 hrs 1.01 hrs 123.83 nm 17.30 gal 10.58 gal/hr 0.14 gal/nm 0 msl 122 kts
Tue, Aug 17, 2010 KSNA KSNA 20:54 21:11 0.29 hrs 0.00 hrs 0.00 nm 0.80 gal 2.81 gal/hr 0.00 gal/nm 0 msl 0 kts
Wed, Aug 18, 2010 KSNA KRNO 17:00 19:53 2.85 hrs 2.47 hrs 413.02 nm 37.30 gal 13.08 gal/hr 0.09 gal/nm 0 msl 166 kts
Thu, Aug 19, 2010 KRNO KSNA 20:50 23:59 3.1 hrs 2.61 hrs 420.54 nm 37.20 gal 11.99 gal/hr 0.09 gal/nm 0 msl 160 kts
Sun, Aug 22, 2010 KSNA KSNA 20:32 21:54 1.35 hrs 0.87 hrs 115.77 nm 15.80 gal 11.69 gal/hr 0.14 gal/nm 0 msl 132 kts
Wed, Aug 25, 2010 KSNA KSMO 17:28 18:18 0.84 hrs 0.34 hrs 44.42 nm 6.60 gal 7.90 gal/hr 0.15 gal/nm 0 msl 129 kts
Wed, Aug 25, 2010     20:25 20:26 0.02 hrs 0.00 hrs 0.00 nm 0.00 gal 0.00 gal/hr 0.00 gal/nm 0 msl 0 kts
Wed, Aug 25, 2010 KSMO KSNA 20:46 21:29 0.72 hrs 0.32 hrs 0.00 nm 6.80 gal 9.47 gal/hr 0.00 gal/nm 0 msl 0 kts
Sun, Aug 29, 2010 KSNA F70 18:50 19:30 0.67 hrs 0.33 hrs 50.62 nm 6.70 gal 10.02 gal/hr 0.13 gal/nm 0 msl 150 kts
Sun, Aug 29, 2010 F70 KNFG 21:29 22:31 1.02 hrs 0.66 hrs 96.99 nm 12.20 gal 11.98 gal/hr 0.13 gal/nm 0 msl 146 kts
Sun, Aug 29, 2010 F70 F70 23:43 23:43 0 hrs 0.00 hrs 0.00 nm 30.70 gal 18420.00 gal/hr 0.00 gal/nm 0 msl 0 kts
Sun, Aug 29, 2010 KCRQ F70 22:48 23:43 0.9 hrs 0.78 hrs 114.26 nm 30.70 gal 34.05 gal/hr 0.27 gal/nm 0 msl 144 kts
Mon, Aug 30, 2010 F70 KSNA 00:14 00:45 0.52 hrs 0.30 hrs 43.49 nm 5.50 gal 10.61 gal/hr 0.13 gal/nm 0 msl 143 kts
Mon, Aug 30, 2010 F70 F70 19:30 19:30 0 hrs 0.00 hrs 0.00 nm 6.70 gal 4020.00 gal/hr 0.00 gal/nm 0 msl 0 kts
Fri, Sep 3, 2010 KSNA KRAL 00:01 00:39 0.62 hrs 0.27 hrs 40.88 nm 5.90 gal 9.54 gal/hr 0.14 gal/nm 0 msl 151 kts
Fri, Sep 3, 2010 KRAL KHII 23:55 01:12 1.25 hrs 1.02 hrs 166.90 nm 18.80 gal 15.02 gal/hr 0.11 gal/nm 0 msl 163 kts
Tue, Sep 7, 2010 KHII KRAL 01:08 02:25 1.25 hrs 1.03 hrs 164.19 nm 18.10 gal 14.46 gal/hr 0.11 gal/nm 0 msl 157 kts
Tue, Sep 7, 2010 KRAL KSNA 02:38 03:07 0.49 hrs 0.25 hrs 35.87 nm 4.70 gal 9.69 gal/hr 0.13 gal/nm 0 msl 142 kts
Thu, Sep 9, 2010 KSNA KSNA 01:46 01:52 0.1 hrs 0.00 hrs 0.00 nm 0.00 gal 0.00 gal/hr 0.00 gal/nm 0 msl 0 kts
Thu, Sep 9, 2010 KSNA KVNY 01:53 03:07 1.2 hrs 0.80 hrs 106.60 nm 14.20 gal 11.82 gal/hr 0.13 gal/nm 0 msl 132 kts
Thu, Sep 9, 2010 KVNY KSNA 04:28 05:18 0.82 hrs 0.45 hrs 63.82 nm 7.40 gal 9.04 gal/hr 0.12 gal/nm 0 msl 140 kts
Tue, Sep 14, 2010 KSNA KRAL 18:32 19:01 0.49 hrs 0.28 hrs 33.88 nm 3.80 gal 7.84 gal/hr 0.11 gal/nm 0 msl 123 kts
Tue, Sep 14, 2010     22:27 22:28 0.02 hrs 0.00 hrs 0.00 nm 0.00 gal 0.00 gal/hr 0.00 gal/nm 0 msl 0 kts
Tue, Sep 14, 2010 KRAL KSNA 22:35 22:55 0.34 hrs 0.22 hrs 29.12 nm 3.20 gal 9.55 gal/hr 0.11 gal/nm 0 msl 133 kts
Thu, Sep 16, 2010 KSNA KSCK 13:41 16:15 2.54 hrs 1.97 hrs 332.71 nm 35.20 gal 13.89 gal/hr 0.11 gal/nm 0 msl 168 kts
Fri, Sep 17, 2010 KSCK KSNA 00:37 03:05 2.44 hrs 2.08 hrs 334.92 nm 35.30 gal 14.50 gal/hr 0.11 gal/nm 0 msl 159 kts
Tue, Sep 21, 2010 KSNA KSNA 03:05 03:05 0 hrs 0.00 hrs 0.00 nm 35.30 gal 21180.00 gal/hr 0.00 gal/nm 0 msl 0 kts
Sun, Sep 26, 2010 KSNA KRAL 17:59 19:06 1.1 hrs 0.60 hrs 80.10 nm 10.00 gal 9.08 gal/hr 0.12 gal/nm 0 msl 132 kts
Sun, Sep 26, 2010     21:38 21:39 0.02 hrs 0.00 hrs 0.00 nm 0.10 gal 5.45 gal/hr 0.00 gal/nm 0 msl 0 kts
Sun, Sep 26, 2010 KRAL KSNA 22:05 22:27 0.37 hrs 0.26 hrs 32.83 nm 3.70 gal 10.05 gal/hr 0.11 gal/nm 0 msl 126 kts
Mon, Sep 27, 2010 KSNA KSNA 15:16 15:27 0.19 hrs 0.00 hrs 0.00 nm 1.00 gal 5.41 gal/hr 0.00 gal/nm 0 msl 0 kts
Thu, Sep 30, 2010     19:59 20:00 0.02 hrs 0.00 hrs 0.00 nm 0.00 gal 0.00 gal/hr 0.00 gal/nm 0 msl 0 kts
Thu, Sep 30, 2010     20:01 20:02 0.02 hrs 0.00 hrs 0.00 nm 0.00 gal 0.00 gal/hr 0.00 gal/nm 0 msl 0 kts
Thu, Sep 30, 2010 KSNA KSNA 22:25 22:33 0.14 hrs 0.00 hrs 0.00 nm 0.90 gal 6.67 gal/hr 0.00 gal/nm 0 msl 0 kts
Thu, Sep 30, 2010 KSNA KSNA 23:31 23:33 0.04 hrs 0.00 hrs 0.00 nm 0.10 gal 2.86 gal/hr 0.00 gal/nm 0 msl 0 kts
Fri, Oct 1, 2010 KSNA KPSP 16:58 17:48 0.84 hrs 0.55 hrs 80.15 nm 10.10 gal 12.10 gal/hr 0.13 gal/nm 0 msl 145 kts
Fri, Oct 1, 2010 KSNA KSNA 22:33 22:33 0 hrs 0.00 hrs 0.00 nm 0.90 gal 540.00 gal/hr 0.00 gal/nm 0 msl 0 kts
Sat, Oct 2, 2010 KPSP KSNA 00:20 01:14 0.9 hrs 0.53 hrs 81.44 nm 10.00 gal 11.09 gal/hr 0.12 gal/nm 0 msl 154 kts
Sat, Oct 2, 2010 KSNA KSNA 01:16 01:35 0.32 hrs 0.00 hrs 0.00 nm 0.20 gal 0.63 gal/hr 0.00 gal/nm 0 msl 0 kts
Sun, Oct 3, 2010 KSNA KSNA 21:39 21:43 0.07 hrs 0.00 hrs 0.00 nm 0.00 gal 0.00 gal/hr 0.00 gal/nm 0 msl 0 kts
Sun, Oct 10, 2010 KSNA KSNA 19:03 19:12 0.15 hrs 0.00 hrs 0.00 nm 0.30 gal 1.98 gal/hr 0.00 gal/nm 0 msl 0 kts
Sun, Oct 10, 2010 KSNA KRAL 19:14 19:47 0.55 hrs 0.31 hrs 39.27 nm 4.80 gal 8.70 gal/hr 0.12 gal/nm 0 msl 127 kts
Sun, Oct 10, 2010 KRAL KSNA 23:49 00:12 0.39 hrs 0.27 hrs 31.83 nm 3.20 gal 8.31 gal/hr 0.10 gal/nm 0 msl 118 kts
Mon, Oct 25, 2010 KSNA KALM 14:16 17:55 3.62 hrs 3.13 hrs 663.93 nm 51.90 gal 14.34 gal/hr 0.08 gal/nm 0 msl 211 kts
Mon, Oct 25, 2010 KALM KCGZ 20:19 23:38 3.27 hrs 2.99 hrs 355.70 nm 48.30 gal 14.78 gal/hr 0.14 gal/nm 0 msl 118 kts
Mon, Oct 25, 2010 KCGZ KSNA 23:59 02:39 2.64 hrs 2.44 hrs 0.00 nm 37.50 gal 14.23 gal/hr 0.00 gal/nm 0 msl 0 kts
Fri, Oct 29, 2010 KSNA KSNA 23:10 23:41 0.5 hrs 0.22 hrs 29.83 nm 3.60 gal 7.18 gal/hr 0.12 gal/nm 0 msl 137 kts
Fri, Oct 29, 2010     23:45 23:49 0.07 hrs 0.00 hrs 0.00 nm 0.20 gal 2.93 gal/hr 0.00 gal/nm 0 msl 0 kts
Sat, Oct 30, 2010     00:15 00:15 0.02 hrs 0.00 hrs 0.00 nm 0.10 gal 5.45 gal/hr 0.00 gal/nm 0 msl 0 kts
Sat, Oct 30, 2010 KSNA KSNA 00:26 00:26 0 hrs 0.00 hrs 0.00 nm 0.30 gal 180.00 gal/hr 0.00 gal/nm 0 msl 0 kts
Sat, Oct 30, 2010 KSNA KSNA 00:19 00:26 0.12 hrs 0.00 hrs 0.00 nm 0.30 gal 2.54 gal/hr 0.00 gal/nm 0 msl 0 kts
Sat, Oct 30, 2010 KSNA KSNA 00:28 00:46 0.3 hrs 0.23 hrs 31.11 nm 3.20 gal 10.61 gal/hr 0.10 gal/nm 0 msl 138 kts
Sat, Oct 30, 2010 KSNA KHII 03:39 05:05 1.42 hrs 1.10 hrs 189.55 nm 18.50 gal 13.04 gal/hr 0.10 gal/nm 0 msl 171 kts
Sun, Oct 31, 2010 KHII KRAL 19:56 21:10 1.22 hrs 1.05 hrs 165.16 nm 16.70 gal 13.71 gal/hr 0.10 gal/nm 0 msl 157 kts
Mon, Nov 1, 2010 KRAL KHII 21:21 22:37 1.25 hrs 1.05 hrs 164.40 nm 17.20 gal 13.74 gal/hr 0.10 gal/nm 0 msl 156 kts
Tue, Nov 2, 2010 KHII KRAL 01:30 02:41 1.17 hrs 0.99 hrs 165.69 nm 15.90 gal 13.61 gal/hr 0.10 gal/nm 0 msl 166 kts
Wed, Nov 3, 2010 KRAL KSAC 16:38 18:59 2.32 hrs 2.01 hrs 354.27 nm 31.80 gal 13.72 gal/hr 0.09 gal/nm 0 msl 175 kts
Wed, Nov 3, 2010 KSAC KSNA 22:59 01:57 2.92 hrs 2.67 hrs 402.31 nm 40.30 gal 13.81 gal/hr 0.10 gal/nm 0 msl 150 kts
Fri, Nov 5, 2010 KSNA KOXR 17:40 18:35 0.9 hrs 0.50 hrs 79.47 nm 10.10 gal 11.20 gal/hr 0.13 gal/nm 0 msl 157 kts
Fri, Nov 5, 2010 KOXR KOXR 21:30 21:33 0.05 hrs 0.00 hrs 0.00 nm 0.00 gal 0.00 gal/hr 0.00 gal/nm 0 msl 0 kts
Fri, Nov 5, 2010 KOXR KSNA 22:03 22:57 0.89 hrs 0.58 hrs 90.04 nm 10.70 gal 12.09 gal/hr 0.12 gal/nm 0 msl 153 kts
Thu, Nov 11, 2010 KSNA 5L2 19:11 20:43 1.52 hrs 1.25 hrs 170.05 nm 20.30 gal 13.37 gal/hr 0.12 gal/nm 0 msl 135 kts
Thu, Nov 11, 2010 4AZ4 KSDL 20:45 21:42 0.95 hrs 0.88 hrs 132.29 nm 32.90 gal 34.57 gal/hr 0.25 gal/nm 0 msl 150 kts
Sat, Nov 13, 2010 KSDL KSNA 21:46 23:59 2.19 hrs 1.88 hrs 307.38 nm 31.20 gal 14.28 gal/hr 0.10 gal/nm 0 msl 162 kts
Tue, Nov 16, 2010 KSNA 1CL2 16:57 17:45 0.8 hrs 0.63 hrs 78.09 nm 9.10 gal 11.35 gal/hr 0.12 gal/nm 0 msl 124 kts
Tue, Nov 16, 2010 1CL2 L71 17:47 17:52 0.09 hrs 0.07 hrs 9.35 nm 10.50 gal 123.53 gal/hr 1.12 gal/nm 0 msl 140 kts
Tue, Nov 16, 2010 L71 KIYK 17:53 18:02 0.15 hrs 0.13 hrs 19.29 nm 12.50 gal 82.42 gal/hr 0.65 gal/nm 0 msl 144 kts
Tue, Nov 16, 2010 KIYK O26 18:03 18:23 0.34 hrs 0.32 hrs 49.16 nm 4.50 gal 13.43 gal/hr 0.09 gal/nm 0 msl 155 kts
Tue, Nov 16, 2010 O26 KMMH 18:24 19:08 0.72 hrs 0.66 hrs 93.68 nm 13.30 gal 18.52 gal/hr 0.14 gal/nm 0 msl 142 kts
Wed, Nov 17, 2010 KMMH KMMH 21:22 21:35 0.22 hrs 0.12 hrs 14.14 nm 2.10 gal 9.62 gal/hr 0.15 gal/nm 0 msl 120 kts
Wed, Nov 17, 2010 KBIH KRAL 21:36 23:03 1.44 hrs 1.38 hrs 228.49 nm 19.50 gal 13.59 gal/hr 0.09 gal/nm 0 msl 164 kts
Thu, Nov 18, 2010 KRAL KSNA 00:18 00:37 0.32 hrs 0.22 hrs 28.76 nm 3.50 gal 10.99 gal/hr 0.12 gal/nm 0 msl 133 kts
Thu, Nov 18, 2010 KSNA O61 18:50 21:27 2.57 hrs 2.18 hrs 358.39 nm 32.90 gal 12.81 gal/hr 0.09 gal/nm 0 msl 162 kts
Fri, Nov 19, 2010 O61 O61 01:18 01:20 0.04 hrs 0.00 hrs 0.00 nm 0.10 gal 2.86 gal/hr 0.00 gal/nm 0 msl 0 kts
Fri, Nov 19, 2010 O61 KSNA 01:50 04:34 2.67 hrs 2.50 hrs 390.68 nm 37.20 gal 13.94 gal/hr 0.10 gal/nm 0 msl 155 kts
Fri, Nov 19, 2010 KSNA KSNA 19:29 19:31 0.04 hrs 0.00 hrs 0.00 nm 0.00 gal 0.00 gal/hr 0.00 gal/nm 0 msl 0 kts
Fri, Nov 19, 2010 KSNA KCMA 19:33 21:18 1.72 hrs 1.08 hrs 150.65 nm 16.50 gal 9.60 gal/hr 0.11 gal/nm 0 msl 138 kts
Fri, Nov 19, 2010 KCMA KEMT 22:19 23:05 0.75 hrs 0.42 hrs 60.15 nm 8.60 gal 11.44 gal/hr 0.14 gal/nm 0 msl 143 kts
Fri, Nov 19, 2010 KEMT KSNA 23:06 23:29 0.39 hrs 0.32 hrs 40.42 nm 12.40 gal 32.21 gal/hr 0.31 gal/nm 0 msl 125 kts
Sat, Nov 20, 2010 KSNA KSNA 04:34 04:34 0 hrs 0.00 hrs 0.00 nm 37.20 gal 22320.00 gal/hr 0.00 gal/nm 0 msl 0 kts
Sat, Nov 20, 2010 KSNA KSNA 04:34 04:34 0 hrs 0.00 hrs 0.00 nm 37.20 gal 22320.00 gal/hr 0.00 gal/nm 0 msl 0 kts
Fri, Dec 16, 2011 KIPL KNJK 01:02 01:12 0.17 hrs 0.09 hrs 0.00 nm 2.50 gal 14.85 gal/hr 0.00 gal/nm 0 msl 0 kts
Fri, Dec 16, 2011 KNJK L78 01:13 01:22 0.15 hrs 0.13 hrs 20.88 nm 6.00 gal 39.56 gal/hr 0.29 gal/nm 0 msl 156 kts
Fri, Dec 16, 2011 L78 KSEE 01:24 01:40 0.27 hrs 0.25 hrs 44.09 nm 11.20 gal 41.74 gal/hr 0.25 gal/nm 0 msl 175 kts
Fri, Dec 16, 2011 KNKX KSNA 01:41 02:16 0.57 hrs 0.48 hrs 77.89 nm 19.70 gal 34.66 gal/hr 0.25 gal/nm 0 msl 162 kts
Wed, Dec 21, 2011 KSNA KMMH 17:33 19:34 2 hrs 1.78 hrs 255.56 nm 23.50 gal 11.74 gal/hr 0.09 gal/nm 0 msl 144 kts
Wed, Dec 21, 2011 KMMH KRAL 23:42 01:21 1.64 hrs 1.52 hrs 254.16 nm 19.70 gal 12.05 gal/hr 0.08 gal/nm 0 msl 167 kts
Thu, Dec 22, 2011 KRAL KRAL 01:21 01:21 0 hrs 0.00 hrs 0.00 nm 19.70 gal 11820.00 gal/hr 0.00 gal/nm 0 msl 0 kts
Thu, Dec 22, 2011 KRAL KSNA 01:56 02:19 0.39 hrs 0.23 hrs 29.69 nm 3.30 gal 8.57 gal/hr 0.11 gal/nm 0 msl 131 kts
Thu, Dec 22, 2011 KSNA KSNA 19:03 19:08 0.09 hrs 0.00 hrs 0.00 nm 0.20 gal 2.35 gal/hr 0.00 gal/nm 0 msl 0 kts
Thu, Dec 22, 2011 KSNA KSNA 23:03 23:11 0.14 hrs 0.00 hrs 0.00 nm 0.30 gal 2.22 gal/hr 0.00 gal/nm 0 msl 0 kts
Fri, Dec 23, 2011 KSNA KSNA 19:08 19:08 0 hrs 0.00 hrs 0.00 nm 0.20 gal 120.00 gal/hr 0.00 gal/nm 0 msl 0 kts
Mon, Jan 2, 2012 KSNA L35 20:21 21:13 0.87 hrs 0.56 hrs 76.86 nm 8.30 gal 9.56 gal/hr 0.11 gal/nm 0 msl 137 kts
Mon, Jan 2, 2012 L35 KRAL 23:33 00:18 0.75 hrs 0.42 hrs 60.85 nm 6.40 gal 8.51 gal/hr 0.11 gal/nm 0 msl 145 kts
Tue, Jan 3, 2012 KRAL KSNA 00:26 00:49 0.39 hrs 0.25 hrs 32.39 nm